<?xml version='1.0' encoding='UTF-8'?><gpx version="1.1" creator="JPX - https://github.com/jenetics/jpx" xmlns="http://www.topografix.com/GPX/1/1"><trk><trkseg><trkpt lat="43.31128601097312" lon="10.523281045726284"><ele>15.0</ele><time>2026-04-06T05:22:27.001Z</time></trkpt><trkpt lat="43.31121315324369" lon="10.523286676882481"><ele>15.0</ele><time>2026-04-06T05:22:34.001Z</time></trkpt><trkpt lat="43.31112700024938" lon="10.523171722951016"><ele>15.0</ele><time>2026-04-06T05:22:38Z</time></trkpt><trkpt lat="43.31111550941769" lon="10.523074644104028"><ele>15.0</ele><time>2026-04-06T05:22:42Z</time></trkpt><trkpt lat="43.31109209515878" lon="10.522979302085966"><ele>15.0</ele><time>2026-04-06T05:22:47Z</time></trkpt><trkpt lat="43.311064083827425" lon="10.522885545760813"><ele>15.0</ele><time>2026-04-06T05:22:53Z</time></trkpt><trkpt lat="43.31105546264607" lon="10.522789150581737"><ele>15.142857142857142</ele><time>2026-04-06T05:22:58Z</time></trkpt><trkpt lat="43.31102669522355" lon="10.522708579537527"><ele>15.285714285714285</ele><time>2026-04-06T05:23:02Z</time></trkpt><trkpt lat="43.31099226411434" lon="10.522619368381491"><ele>15.428571428571427</ele><time>2026-04-06T05:23:07Z</time></trkpt><trkpt lat="43.31095770757015" lon="10.522534293492463"><ele>15.571428571428571</ele><time>2026-04-06T05:23:12Z</time></trkpt><trkpt lat="43.310929778235355" lon="10.522445246677401"><ele>15.714285714285712</ele><time>2026-04-06T05:23:17Z</time></trkpt><trkpt lat="43.31090716792678" lon="10.522353186266043"><ele>15.857142857142856</ele><time>2026-04-06T05:23:22Z</time></trkpt><trkpt lat="43.31088718167473" lon="10.522258748102335"><ele>16.0</ele><time>2026-04-06T05:23:29Z</time></trkpt><trkpt lat="43.31085140628035" lon="10.522164593267135"><ele>16.0</ele><time>2026-04-06T05:23:33Z</time></trkpt><trkpt lat="43.31079422725759" lon="10.5221052307916"><ele>15.999999999999998</ele><time>2026-04-06T05:23:36Z</time></trkpt><trkpt lat="43.310820105280854" lon="10.522187610790972"><ele>16.0</ele><time>2026-04-06T05:23:37Z</time></trkpt><trkpt lat="43.31074899095072" lon="10.52216151093139"><ele>16.0</ele><time>2026-04-06T05:23:40Z</time></trkpt><trkpt lat="43.31067366672538" lon="10.52214115356268"><ele>15.999999999999998</ele><time>2026-04-06T05:23:44Z</time></trkpt><trkpt lat="43.310605663470966" lon="10.522103587888202"><ele>16.0</ele><time>2026-04-06T05:23:50Z</time></trkpt><trkpt lat="43.31052645832531" lon="10.522130220218049"><ele>16.0</ele><time>2026-04-06T05:23:54Z</time></trkpt><trkpt lat="43.31045853847867" lon="10.522173990952483"><ele>15.571428571428571</ele><time>2026-04-06T05:23:58Z</time></trkpt><trkpt lat="43.3103876022249" lon="10.52221768425723"><ele>15.142857142857142</ele><time>2026-04-06T05:24:02Z</time></trkpt><trkpt lat="43.310319812543234" lon="10.522258766059"><ele>14.714285714285714</ele><time>2026-04-06T05:24:06Z</time></trkpt><trkpt lat="43.31029411769594" lon="10.522177456569814"><ele>14.285714285714285</ele><time>2026-04-06T05:24:10Z</time></trkpt><trkpt lat="43.31025340355517" lon="10.522089925546387"><ele>13.857142857142858</ele><time>2026-04-06T05:24:17Z</time></trkpt><trkpt lat="43.31024209140785" lon="10.521993483280285"><ele>13.428571428571427</ele><time>2026-04-06T05:24:21Z</time></trkpt><trkpt lat="43.31021100497787" lon="10.521913620698978"><ele>13.0</ele><time>2026-04-06T05:24:25Z</time></trkpt><trkpt lat="43.310203332946784" lon="10.521808688538664"><ele>13.0</ele><time>2026-04-06T05:24:29Z</time></trkpt><trkpt lat="43.31014764628148" lon="10.521722260295569"><ele>13.0</ele><time>2026-04-06T05:24:33Z</time></trkpt><trkpt lat="43.3101125473346" lon="10.521640861639275"><ele>13.0</ele><time>2026-04-06T05:24:37Z</time></trkpt><trkpt lat="43.31011128487096" lon="10.521551605949231"><ele>13.0</ele><time>2026-04-06T05:24:41Z</time></trkpt><trkpt lat="43.31009501733684" lon="10.521463498243255"><ele>13.0</ele><time>2026-04-06T05:24:46Z</time></trkpt><trkpt lat="43.310067472391054" lon="10.521366936278433"><ele>13.0</ele><time>2026-04-06T05:24:51Z</time></trkpt><trkpt lat="43.31004387461802" lon="10.521274206725929"><ele>13.0</ele><time>2026-04-06T05:24:54Z</time></trkpt><trkpt lat="43.310013258230626" lon="10.521171563209878"><ele>13.0</ele><time>2026-04-06T05:24:58Z</time></trkpt><trkpt lat="43.30996417355514" lon="10.521091735121441"><ele>13.0</ele><time>2026-04-06T05:25:02Z</time></trkpt><trkpt lat="43.309915260083336" lon="10.521024703862775"><ele>13.0</ele><time>2026-04-06T05:25:06Z</time></trkpt><trkpt lat="43.30988368012964" lon="10.520922605431998"><ele>13.0</ele><time>2026-04-06T05:25:12Z</time></trkpt><trkpt lat="43.309858307021074" lon="10.520840089816296"><ele>13.0</ele><time>2026-04-06T05:25:16Z</time></trkpt><trkpt lat="43.30986146707002" lon="10.520739841796173"><ele>13.0</ele><time>2026-04-06T05:25:20Z</time></trkpt><trkpt lat="43.3098668450464" lon="10.520635708977963"><ele>13.0</ele><time>2026-04-06T05:25:25Z</time></trkpt><trkpt lat="43.309846917977254" lon="10.520536246688373"><ele>13.0</ele><time>2026-04-06T05:25:29Z</time></trkpt><trkpt lat="43.309817068683884" lon="10.520452033128453"><ele>13.0</ele><time>2026-04-06T05:25:33Z</time></trkpt><trkpt lat="43.30977665596591" lon="10.520377131688354"><ele>13.0</ele><time>2026-04-06T05:25:36Z</time></trkpt><trkpt lat="43.309744936607636" lon="10.520280920161658"><ele>13.0</ele><time>2026-04-06T05:25:39Z</time></trkpt><trkpt lat="43.309714088929454" lon="10.520202706993228"><ele>13.0</ele><time>2026-04-06T05:25:43Z</time></trkpt><trkpt lat="43.30969487581335" lon="10.52010963627668"><ele>13.0</ele><time>2026-04-06T05:25:48Z</time></trkpt><trkpt lat="43.30967578860984" lon="10.52002241498194"><ele>13.0</ele><time>2026-04-06T05:25:54Z</time></trkpt><trkpt lat="43.30964600913636" lon="10.519941684589172"><ele>12.857142857142856</ele><time>2026-04-06T05:25:57Z</time></trkpt><trkpt lat="43.309630685545244" lon="10.519841288038016"><ele>12.714285714285715</ele><time>2026-04-06T05:26:02Z</time></trkpt><trkpt lat="43.30959939042707" lon="10.519751283011944"><ele>12.571428571428571</ele><time>2026-04-06T05:26:07Z</time></trkpt><trkpt lat="43.309542908695846" lon="10.519704383785275"><ele>12.428571428571427</ele><time>2026-04-06T05:26:13Z</time></trkpt><trkpt lat="43.30949908431244" lon="10.519618089741325"><ele>12.285714285714285</ele><time>2026-04-06T05:26:18Z</time></trkpt><trkpt lat="43.309466144040655" lon="10.519542921493086"><ele>12.142857142857142</ele><time>2026-04-06T05:26:22Z</time></trkpt><trkpt lat="43.309425902779054" lon="10.519453399990567"><ele>12.0</ele><time>2026-04-06T05:26:28Z</time></trkpt><trkpt lat="43.309399680125395" lon="10.519371932543496"><ele>11.857142857142856</ele><time>2026-04-06T05:26:32Z</time></trkpt><trkpt lat="43.30937281015331" lon="10.519277296184308"><ele>11.714285714285714</ele><time>2026-04-06T05:26:36Z</time></trkpt><trkpt lat="43.3093621306002" lon="10.519175115498424"><ele>11.571428571428571</ele><time>2026-04-06T05:26:40Z</time></trkpt><trkpt lat="43.30932956413935" lon="10.519084098408042"><ele>11.428571428571427</ele><time>2026-04-06T05:26:44Z</time></trkpt><trkpt lat="43.30931208697928" lon="10.518989938855348"><ele>11.285714285714285</ele><time>2026-04-06T05:26:48Z</time></trkpt><trkpt lat="43.30926036910248" lon="10.518929944869221"><ele>11.142857142857142</ele><time>2026-04-06T05:26:52Z</time></trkpt><trkpt lat="43.309197768973306" lon="10.518873192213833"><ele>11.0</ele><time>2026-04-06T05:26:57Z</time></trkpt><trkpt lat="43.30917448174178" lon="10.518769797618335"><ele>11.142857142857142</ele><time>2026-04-06T05:27:01Z</time></trkpt><trkpt lat="43.30914910381179" lon="10.518678200997199"><ele>11.285714285714285</ele><time>2026-04-06T05:27:05Z</time></trkpt><trkpt lat="43.30913959562166" lon="10.518582797656112"><ele>11.428571428571427</ele><time>2026-04-06T05:27:09Z</time></trkpt><trkpt lat="43.309094826030936" lon="10.51848733169233"><ele>11.571428571428571</ele><time>2026-04-06T05:27:16Z</time></trkpt><trkpt lat="43.3090790125465" lon="10.518372354057865"><ele>11.714285714285714</ele><time>2026-04-06T05:27:20Z</time></trkpt><trkpt lat="43.30907649269821" lon="10.51827583790893"><ele>11.857142857142856</ele><time>2026-04-06T05:27:23Z</time></trkpt><trkpt lat="43.30908288605756" lon="10.518186202989215"><ele>12.0</ele><time>2026-04-06T05:27:26Z</time></trkpt><trkpt lat="43.30910573493289" lon="10.518100913225457"><ele>11.999999999999998</ele><time>2026-04-06T05:27:30Z</time></trkpt><trkpt lat="43.30914523531713" lon="10.518005498529195"><ele>12.0</ele><time>2026-04-06T05:27:36Z</time></trkpt><trkpt lat="43.30915835488331" lon="10.517900560279884"><ele>12.0</ele><time>2026-04-06T05:27:40Z</time></trkpt><trkpt lat="43.309163104161755" lon="10.517810350489325"><ele>12.0</ele><time>2026-04-06T05:27:44Z</time></trkpt><trkpt lat="43.30916182094231" lon="10.517715105726372"><ele>12.0</ele><time>2026-04-06T05:27:51Z</time></trkpt><trkpt lat="43.30917717648852" lon="10.517620761515701"><ele>11.999999999999998</ele><time>2026-04-06T05:27:55Z</time></trkpt><trkpt lat="43.309192315811735" lon="10.517516090297656"><ele>12.0</ele><time>2026-04-06T05:27:59Z</time></trkpt><trkpt lat="43.30921204184666" lon="10.517427732331257"><ele>12.5</ele><time>2026-04-06T05:28:03Z</time></trkpt><trkpt lat="43.309204989981254" lon="10.517325831483493"><ele>13.0</ele><time>2026-04-06T05:28:07Z</time></trkpt><trkpt lat="43.309228781818476" lon="10.517239268954766"><ele>13.5</ele><time>2026-04-06T05:28:11Z</time></trkpt><trkpt lat="43.30913270378751" lon="10.517184508578444"><ele>14.0</ele><time>2026-04-06T05:28:14Z</time></trkpt><trkpt lat="43.30906646894697" lon="10.517178232092286"><ele>14.5</ele><time>2026-04-06T05:28:18Z</time></trkpt><trkpt lat="43.308997459429214" lon="10.517178655212504"><ele>15.0</ele><time>2026-04-06T05:28:28Z</time></trkpt><trkpt lat="43.30892476397419" lon="10.517174581752496"><ele>15.0</ele><time>2026-04-06T05:28:34Z</time></trkpt><trkpt lat="43.30908424844345" lon="10.517158741744998"><ele>15.0</ele><time>2026-04-06T05:29:05Z</time></trkpt><trkpt lat="43.30911783077407" lon="10.517075553146196"><ele>15.0</ele><time>2026-04-06T05:29:31Z</time></trkpt><trkpt lat="43.309182405315084" lon="10.51701715823492"><ele>15.0</ele><time>2026-04-06T05:29:35Z</time></trkpt><trkpt lat="43.3092491813581" lon="10.51694865440774"><ele>15.0</ele><time>2026-04-06T05:29:37Z</time></trkpt><trkpt lat="43.30918487161082" lon="10.516663947172228"><ele>14.5</ele><time>2026-04-06T05:31:42Z</time></trkpt><trkpt lat="43.30908354387692" lon="10.516553444434615"><ele>14.0</ele><time>2026-04-06T05:31:57Z</time></trkpt><trkpt lat="43.30900479180566" lon="10.516512595989884"><ele>13.5</ele><time>2026-04-06T05:32:02Z</time></trkpt><trkpt lat="43.309050100089515" lon="10.516429622643573"><ele>13.0</ele><time>2026-04-06T05:32:13Z</time></trkpt><trkpt lat="43.309079083836316" lon="10.516347946434685"><ele>12.5</ele><time>2026-04-06T05:32:24Z</time></trkpt><trkpt lat="43.309015256195906" lon="10.516337351493583"><ele>12.0</ele><time>2026-04-06T05:32:27Z</time></trkpt><trkpt lat="43.308933920604524" lon="10.516382921668663"><ele>11.999999999999998</ele><time>2026-04-06T05:32:31Z</time></trkpt><trkpt lat="43.308865613892074" lon="10.51640398319739"><ele>12.0</ele><time>2026-04-06T05:32:35Z</time></trkpt><trkpt lat="43.30886266315284" lon="10.516306397682435"><ele>12.0</ele><time>2026-04-06T05:32:45Z</time></trkpt><trkpt lat="43.308814227125495" lon="10.51624000640975"><ele>12.0</ele><time>2026-04-06T05:32:48Z</time></trkpt><trkpt lat="43.308841799442035" lon="10.51616110077229"><ele>12.0</ele><time>2026-04-06T05:33:01Z</time></trkpt><trkpt lat="43.30890065703891" lon="10.516119492894006"><ele>11.999999999999998</ele><time>2026-04-06T05:33:04Z</time></trkpt><trkpt lat="43.30895893539443" lon="10.516071925431502"><ele>12.0</ele><time>2026-04-06T05:33:07Z</time></trkpt><trkpt lat="43.30900896994981" lon="10.516008794506586"><ele>11.571428571428571</ele><time>2026-04-06T05:33:12Z</time></trkpt><trkpt lat="43.30905561185882" lon="10.515940779847673"><ele>11.142857142857142</ele><time>2026-04-06T05:33:17Z</time></trkpt><trkpt lat="43.30911434000248" lon="10.51590616453275"><ele>10.714285714285715</ele><time>2026-04-06T05:33:20Z</time></trkpt><trkpt lat="43.30917656206668" lon="10.515922470141126"><ele>10.285714285714285</ele><time>2026-04-06T05:33:26Z</time></trkpt><trkpt lat="43.30924126444234" lon="10.515897986620384"><ele>9.857142857142858</ele><time>2026-04-06T05:33:30Z</time></trkpt><trkpt lat="43.30930017450107" lon="10.515846770977687"><ele>9.428571428571429</ele><time>2026-04-06T05:33:34Z</time></trkpt><trkpt lat="43.3093647798359" lon="10.515800457792238"><ele>9.0</ele><time>2026-04-06T05:33:37Z</time></trkpt><trkpt lat="43.30942023982203" lon="10.515732797804667"><ele>9.000000000000002</ele><time>2026-04-06T05:33:40Z</time></trkpt><trkpt lat="43.30945759649543" lon="10.515647030669093"><ele>9.0</ele><time>2026-04-06T05:33:43Z</time></trkpt><trkpt lat="43.30946479247076" lon="10.515558532145723"><ele>9.0</ele><time>2026-04-06T05:33:46Z</time></trkpt><trkpt lat="43.309452099088944" lon="10.515442473410792"><ele>9.0</ele><time>2026-04-06T05:33:51Z</time></trkpt><trkpt lat="43.309457185297056" lon="10.51534883999992"><ele>9.0</ele><time>2026-04-06T05:33:54Z</time></trkpt><trkpt lat="43.30945630394175" lon="10.515260193179403"><ele>9.000000000000002</ele><time>2026-04-06T05:33:57Z</time></trkpt><trkpt lat="43.30943762790936" lon="10.515163133713925"><ele>9.0</ele><time>2026-04-06T05:34:01Z</time></trkpt><trkpt lat="43.30941658335648" lon="10.515063632970058"><ele>9.0</ele><time>2026-04-06T05:34:06Z</time></trkpt><trkpt lat="43.30942811717402" lon="10.514974980691886"><ele>9.0</ele><time>2026-04-06T05:34:11Z</time></trkpt><trkpt lat="43.30938432227825" lon="10.514898363969134"><ele>9.0</ele><time>2026-04-06T05:34:17Z</time></trkpt><trkpt lat="43.309309201427496" lon="10.515020430461398"><ele>9.0</ele><time>2026-04-06T05:34:27.025Z</time></trkpt><trkpt lat="43.308970844268764" lon="10.514419634200385"><ele>8.8</ele><time>2026-04-06T05:34:39.45Z</time></trkpt><trkpt lat="43.309136323988284" lon="10.514332649386521"><ele>8.600000000000001</ele><time>2026-04-06T05:34:43.25Z</time></trkpt><trkpt lat="43.30919443143264" lon="10.514269844597752"><ele>8.4</ele><time>2026-04-06T05:34:48Z</time></trkpt><trkpt lat="43.30918176295045" lon="10.51417827558914"><ele>8.200000000000001</ele><time>2026-04-06T05:34:53Z</time></trkpt><trkpt lat="43.3091015549916" lon="10.514160879186417"><ele>8.0</ele><time>2026-04-06T05:35:00Z</time></trkpt><trkpt lat="43.30903267687525" lon="10.514152266844306"><ele>8.0</ele><time>2026-04-06T05:35:04Z</time></trkpt><trkpt lat="43.30896685825594" lon="10.51409291161693"><ele>7.999999999999999</ele><time>2026-04-06T05:35:09Z</time></trkpt><trkpt lat="43.308924188654316" lon="10.514023106916648"><ele>8.0</ele><time>2026-04-06T05:35:12Z</time></trkpt><trkpt lat="43.308878465143934" lon="10.513932678025988"><ele>8.0</ele><time>2026-04-06T05:35:16Z</time></trkpt><trkpt lat="43.30884436935744" lon="10.513839250542585"><ele>7.999999999999999</ele><time>2026-04-06T05:35:20Z</time></trkpt><trkpt lat="43.308822831368" lon="10.51374419288787"><ele>8.0</ele><time>2026-04-06T05:35:24Z</time></trkpt><trkpt lat="43.30879860784112" lon="10.513656806077865"><ele>8.0</ele><time>2026-04-06T05:35:28Z</time></trkpt><trkpt lat="43.308751073109" lon="10.513588446554875"><ele>8.0</ele><time>2026-04-06T05:35:32Z</time></trkpt><trkpt lat="43.30871569750406" lon="10.513502633952495"><ele>7.999999999999999</ele><time>2026-04-06T05:35:36Z</time></trkpt><trkpt lat="43.308673640860256" lon="10.51343664670152"><ele>8.0</ele><time>2026-04-06T05:35:40Z</time></trkpt><trkpt lat="43.3086501946576" lon="10.513344767582605"><ele>8.0</ele><time>2026-04-06T05:35:45Z</time></trkpt><trkpt lat="43.30860688927624" lon="10.513271637411979"><ele>7.999999999999999</ele><time>2026-04-06T05:35:49Z</time></trkpt><trkpt lat="43.30857387253023" lon="10.513173117967762"><ele>8.0</ele><time>2026-04-06T05:35:53Z</time></trkpt><trkpt lat="43.30853977731563" lon="10.513094346351293"><ele>8.0</ele><time>2026-04-06T05:35:56Z</time></trkpt><trkpt lat="43.30851009548606" lon="10.513015557129128"><ele>8.0</ele><time>2026-04-06T05:35:59Z</time></trkpt><trkpt lat="43.3084707739129" lon="10.512939199943416"><ele>7.999999999999999</ele><time>2026-04-06T05:36:03Z</time></trkpt><trkpt lat="43.308441951452856" lon="10.512851207120077"><ele>8.0</ele><time>2026-04-06T05:36:07Z</time></trkpt><trkpt lat="43.30839556210286" lon="10.5127902992033"><ele>8.0</ele><time>2026-04-06T05:36:11Z</time></trkpt><trkpt lat="43.30833949405686" lon="10.512722410846349"><ele>7.999999999999999</ele><time>2026-04-06T05:36:16Z</time></trkpt><trkpt lat="43.30831177731579" lon="10.51262852786153"><ele>8.0</ele><time>2026-04-06T05:36:21Z</time></trkpt><trkpt lat="43.308288180061616" lon="10.512538856962193"><ele>8.0</ele><time>2026-04-06T05:36:25Z</time></trkpt><trkpt lat="43.30825308746442" lon="10.512451900279574"><ele>7.857142857142857</ele><time>2026-04-06T05:36:30Z</time></trkpt><trkpt lat="43.308218163563154" lon="10.512360768731247"><ele>7.7142857142857135</ele><time>2026-04-06T05:36:35Z</time></trkpt><trkpt lat="43.30817007569866" lon="10.512283455297773"><ele>7.571428571428571</ele><time>2026-04-06T05:36:42Z</time></trkpt><trkpt lat="43.308126398479445" lon="10.512217138112014"><ele>7.428571428571429</ele><time>2026-04-06T05:36:45Z</time></trkpt><trkpt lat="43.308082856636304" lon="10.512136529777715"><ele>7.285714285714286</ele><time>2026-04-06T05:36:49Z</time></trkpt><trkpt lat="43.30802927747153" lon="10.512068059298432"><ele>7.142857142857142</ele><time>2026-04-06T05:36:55Z</time></trkpt><trkpt lat="43.30799563454677" lon="10.511965950454357"><ele>7.0</ele><time>2026-04-06T05:36:59Z</time></trkpt><trkpt lat="43.30795050028294" lon="10.511880585433731"><ele>7.0</ele><time>2026-04-06T05:37:03Z</time></trkpt><trkpt lat="43.307916338472566" lon="10.51180006147066"><ele>7.0</ele><time>2026-04-06T05:37:07Z</time></trkpt><trkpt lat="43.30788329339827" lon="10.511701421918236"><ele>7.0</ele><time>2026-04-06T05:37:11Z</time></trkpt><trkpt lat="43.307852186444556" lon="10.51162563059024"><ele>7.0</ele><time>2026-04-06T05:37:15Z</time></trkpt><trkpt lat="43.307815391378206" lon="10.511546514515297"><ele>7.0</ele><time>2026-04-06T05:37:20Z</time></trkpt><trkpt lat="43.307776601344635" lon="10.5114583940465"><ele>7.0</ele><time>2026-04-06T05:37:24Z</time></trkpt><trkpt lat="43.307738634189334" lon="10.511371676009746"><ele>7.0</ele><time>2026-04-06T05:37:29Z</time></trkpt><trkpt lat="43.30769158443708" lon="10.511296239663416"><ele>7.142857142857142</ele><time>2026-04-06T05:37:34Z</time></trkpt><trkpt lat="43.30765041402913" lon="10.511226696210025"><ele>7.285714285714286</ele><time>2026-04-06T05:37:38Z</time></trkpt><trkpt lat="43.30760025643965" lon="10.511155448637988"><ele>7.428571428571429</ele><time>2026-04-06T05:37:44Z</time></trkpt><trkpt lat="43.30755859918435" lon="10.511084537723494"><ele>7.571428571428571</ele><time>2026-04-06T05:37:48Z</time></trkpt><trkpt lat="43.30751558800824" lon="10.511007107585064"><ele>7.7142857142857135</ele><time>2026-04-06T05:37:53Z</time></trkpt><trkpt lat="43.30747843570747" lon="10.510923018329047"><ele>7.857142857142857</ele><time>2026-04-06T05:37:57Z</time></trkpt><trkpt lat="43.3074499952167" lon="10.510835895092649"><ele>8.0</ele><time>2026-04-06T05:38:01Z</time></trkpt><trkpt lat="43.30741821073666" lon="10.510760560340156"><ele>8.0</ele><time>2026-04-06T05:38:04Z</time></trkpt><trkpt lat="43.30738149910303" lon="10.510675733274187"><ele>7.999999999999999</ele><time>2026-04-06T05:38:08Z</time></trkpt><trkpt lat="43.30734809153338" lon="10.51058775154563"><ele>8.0</ele><time>2026-04-06T05:38:12Z</time></trkpt><trkpt lat="43.3073218690281" lon="10.510509059677503"><ele>8.0</ele><time>2026-04-06T05:38:15Z</time></trkpt><trkpt lat="43.307290649154346" lon="10.510429440509458"><ele>7.999999999999999</ele><time>2026-04-06T05:38:19Z</time></trkpt><trkpt lat="43.30724762403629" lon="10.510354970001243"><ele>8.0</ele><time>2026-04-06T05:38:24Z</time></trkpt><trkpt lat="43.30719843430001" lon="10.510277466003991"><ele>8.0</ele><time>2026-04-06T05:38:29Z</time></trkpt><trkpt lat="43.307137212599535" lon="10.510206840421231"><ele>7.857142857142857</ele><time>2026-04-06T05:38:36Z</time></trkpt><trkpt lat="43.30710172972959" lon="10.510129141370536"><ele>7.7142857142857135</ele><time>2026-04-06T05:38:43Z</time></trkpt><trkpt lat="43.307079586011994" lon="10.510037665901107"><ele>7.571428571428571</ele><time>2026-04-06T05:38:47Z</time></trkpt><trkpt lat="43.30703670620243" lon="10.509952342513975"><ele>7.428571428571429</ele><time>2026-04-06T05:38:50Z</time></trkpt><trkpt lat="43.30699462983594" lon="10.509878639986638"><ele>7.285714285714286</ele><time>2026-04-06T05:38:53Z</time></trkpt><trkpt lat="43.30695688312309" lon="10.5097840248436"><ele>7.142857142857142</ele><time>2026-04-06T05:38:57Z</time></trkpt><trkpt lat="43.3069229425007" lon="10.509690645062165"><ele>7.0</ele><time>2026-04-06T05:39:02Z</time></trkpt><trkpt lat="43.30689671741264" lon="10.509589189048679"><ele>6.833333333333334</ele><time>2026-04-06T05:39:06Z</time></trkpt><trkpt lat="43.306863173744276" lon="10.509513216381642"><ele>6.666666666666667</ele><time>2026-04-06T05:39:10Z</time></trkpt><trkpt lat="43.3068277016487" lon="10.50943329653744"><ele>6.5</ele><time>2026-04-06T05:39:15Z</time></trkpt><trkpt lat="43.30676788890484" lon="10.509349990991451"><ele>6.333333333333334</ele><time>2026-04-06T05:39:19Z</time></trkpt><trkpt lat="43.30672092457524" lon="10.50927039647919"><ele>6.166666666666667</ele><time>2026-04-06T05:39:23Z</time></trkpt><trkpt lat="43.30666627887733" lon="10.50918596228605"><ele>6.0</ele><time>2026-04-06T05:39:28Z</time></trkpt><trkpt lat="43.3066366579472" lon="10.509087091802217"><ele>5.999999999999999</ele><time>2026-04-06T05:39:32Z</time></trkpt><trkpt lat="43.30661385915867" lon="10.508990231262366"><ele>6.0</ele><time>2026-04-06T05:39:36Z</time></trkpt><trkpt lat="43.306576056393105" lon="10.50891085221093"><ele>6.0</ele><time>2026-04-06T05:39:40Z</time></trkpt><trkpt lat="43.30653239490097" lon="10.50883679735498"><ele>6.0</ele><time>2026-04-06T05:39:44Z</time></trkpt><trkpt lat="43.3064779103053" lon="10.508760324566822"><ele>6.0</ele><time>2026-04-06T05:39:49Z</time></trkpt><trkpt lat="43.30642802223028" lon="10.508705883823927"><ele>5.999999999999999</ele><time>2026-04-06T05:39:54Z</time></trkpt><trkpt lat="43.30638474395283" lon="10.508634455256376"><ele>6.0</ele><time>2026-04-06T05:39:58Z</time></trkpt><trkpt lat="43.30636044185675" lon="10.50854619650174"><ele>6.142857142857142</ele><time>2026-04-06T05:40:03Z</time></trkpt><trkpt lat="43.306316802784494" lon="10.508466493461423"><ele>6.285714285714286</ele><time>2026-04-06T05:40:09Z</time></trkpt><trkpt lat="43.30626073476836" lon="10.508391095490472"><ele>6.428571428571429</ele><time>2026-04-06T05:40:14Z</time></trkpt><trkpt lat="43.306209104979025" lon="10.508316419739334"><ele>6.571428571428571</ele><time>2026-04-06T05:40:19Z</time></trkpt><trkpt lat="43.30617345707066" lon="10.508225400289092"><ele>6.714285714285714</ele><time>2026-04-06T05:40:23Z</time></trkpt><trkpt lat="43.30615400457969" lon="10.508130197348416"><ele>6.857142857142857</ele><time>2026-04-06T05:40:28Z</time></trkpt><trkpt lat="43.30613192959695" lon="10.508045524612704"><ele>7.0</ele><time>2026-04-06T05:40:32Z</time></trkpt><trkpt lat="43.306088861084184" lon="10.507950352473626"><ele>7.000000000000001</ele><time>2026-04-06T05:40:35Z</time></trkpt><trkpt lat="43.30605144265359" lon="10.507864871892172"><ele>7.0</ele><time>2026-04-06T05:40:39Z</time></trkpt><trkpt lat="43.30600412841713" lon="10.50778294489724"><ele>7.0</ele><time>2026-04-06T05:40:45Z</time></trkpt><trkpt lat="43.30594272781812" lon="10.50775330471174"><ele>7.0</ele><time>2026-04-06T05:40:51Z</time></trkpt><trkpt lat="43.30588288588118" lon="10.507664324595767"><ele>7.000000000000001</ele><time>2026-04-06T05:40:56Z</time></trkpt><trkpt lat="43.305841707098104" lon="10.507569723048151"><ele>7.0</ele><time>2026-04-06T05:41:00Z</time></trkpt><trkpt lat="43.305791839268316" lon="10.507505319407711"><ele>7.0</ele><time>2026-04-06T05:41:04Z</time></trkpt><trkpt lat="43.30574450676822" lon="10.507409176285684"><ele>7.0</ele><time>2026-04-06T05:41:10Z</time></trkpt><trkpt lat="43.305722312631225" lon="10.507320994808"><ele>7.0</ele><time>2026-04-06T05:41:13Z</time></trkpt><trkpt lat="43.3056933810838" lon="10.507230653975817"><ele>7.0</ele><time>2026-04-06T05:41:17Z</time></trkpt><trkpt lat="43.305657329344236" lon="10.507131371266999"><ele>7.0</ele><time>2026-04-06T05:41:21Z</time></trkpt><trkpt lat="43.30563364606624" lon="10.50704368604571"><ele>7.0</ele><time>2026-04-06T05:41:25Z</time></trkpt><trkpt lat="43.30559362239944" lon="10.506961995264879"><ele>7.0</ele><time>2026-04-06T05:41:29Z</time></trkpt><trkpt lat="43.3055554537501" lon="10.506887798064405"><ele>6.714285714285714</ele><time>2026-04-06T05:41:33Z</time></trkpt><trkpt lat="43.30551784333769" lon="10.506807972785838"><ele>6.428571428571429</ele><time>2026-04-06T05:41:37Z</time></trkpt><trkpt lat="43.305467232305624" lon="10.50672612398316"><ele>6.142857142857142</ele><time>2026-04-06T05:41:42Z</time></trkpt><trkpt lat="43.30541387402382" lon="10.506652360564175"><ele>5.857142857142858</ele><time>2026-04-06T05:41:47Z</time></trkpt><trkpt lat="43.30539745876476" lon="10.506560968023209"><ele>5.571428571428571</ele><time>2026-04-06T05:41:50Z</time></trkpt><trkpt lat="43.30536308543356" lon="10.506464415179249"><ele>5.285714285714286</ele><time>2026-04-06T05:41:55Z</time></trkpt><trkpt lat="43.30532285825858" lon="10.50639626885678"><ele>5.0</ele><time>2026-04-06T05:42:01Z</time></trkpt><trkpt lat="43.30528580269724" lon="10.50632079141746"><ele>4.857142857142857</ele><time>2026-04-06T05:42:05Z</time></trkpt><trkpt lat="43.305236363859194" lon="10.506237277841699"><ele>4.714285714285714</ele><time>2026-04-06T05:42:10Z</time></trkpt><trkpt lat="43.30518279013595" lon="10.506153850029643"><ele>4.571428571428571</ele><time>2026-04-06T05:42:15Z</time></trkpt><trkpt lat="43.305134289876804" lon="10.506083361427487"><ele>4.428571428571429</ele><time>2026-04-06T05:42:20Z</time></trkpt><trkpt lat="43.30508636917943" lon="10.505999347422563"><ele>4.285714285714286</ele><time>2026-04-06T05:42:26Z</time></trkpt><trkpt lat="43.30506052799401" lon="10.505914782700142"><ele>4.142857142857142</ele><time>2026-04-06T05:42:31Z</time></trkpt><trkpt lat="43.3050048200018" lon="10.505864720480403"><ele>4.0</ele><time>2026-04-06T05:42:42Z</time></trkpt><trkpt lat="43.304949864784774" lon="10.505775669863235"><ele>4.0</ele><time>2026-04-06T05:42:45Z</time></trkpt><trkpt lat="43.3049228285011" lon="10.505692051788358"><ele>3.9999999999999996</ele><time>2026-04-06T05:42:47Z</time></trkpt><trkpt lat="43.30488444021609" lon="10.505618342313525"><ele>4.0</ele><time>2026-04-06T05:42:51Z</time></trkpt><trkpt lat="43.30484113995231" lon="10.505509482168582"><ele>4.0</ele><time>2026-04-06T05:42:55Z</time></trkpt><trkpt lat="43.304820268341786" lon="10.505408178968512"><ele>3.9999999999999996</ele><time>2026-04-06T05:42:59Z</time></trkpt><trkpt lat="43.304790344777" lon="10.505329943819829"><ele>4.0</ele><time>2026-04-06T05:43:02Z</time></trkpt><trkpt lat="43.30476108857472" lon="10.50525024418724"><ele>4.0</ele><time>2026-04-06T05:43:06Z</time></trkpt><trkpt lat="43.30472079764358" lon="10.505162508761487"><ele>4.0</ele><time>2026-04-06T05:43:10Z</time></trkpt><trkpt lat="43.30469047433492" lon="10.505067101529152"><ele>3.9999999999999996</ele><time>2026-04-06T05:43:14Z</time></trkpt><trkpt lat="43.304650143553765" lon="10.50498585075325"><ele>4.0</ele><time>2026-04-06T05:43:19Z</time></trkpt><trkpt lat="43.304608911496345" lon="10.504892539280071"><ele>4.0</ele><time>2026-04-06T05:43:24Z</time></trkpt><trkpt lat="43.3045593295386" lon="10.50482796825244"><ele>3.9999999999999996</ele><time>2026-04-06T05:43:28Z</time></trkpt><trkpt lat="43.30452483931413" lon="10.504743168547499"><ele>4.0</ele><time>2026-04-06T05:43:34Z</time></trkpt><trkpt lat="43.30449364077498" lon="10.50466324483096"><ele>4.0</ele><time>2026-04-06T05:43:38Z</time></trkpt><trkpt lat="43.30445351805689" lon="10.504587269013287"><ele>4.0</ele><time>2026-04-06T05:43:43Z</time></trkpt><trkpt lat="43.304412187874135" lon="10.504513725425731"><ele>3.9999999999999996</ele><time>2026-04-06T05:43:47Z</time></trkpt><trkpt lat="43.304372275959544" lon="10.504440174706422"><ele>4.0</ele><time>2026-04-06T05:43:51Z</time></trkpt><trkpt lat="43.30431539663909" lon="10.504366608544359"><ele>4.0</ele><time>2026-04-06T05:43:56Z</time></trkpt><trkpt lat="43.30428174987241" lon="10.504290980574048"><ele>3.9999999999999996</ele><time>2026-04-06T05:44:00Z</time></trkpt><trkpt lat="43.30424320850882" lon="10.504214603748395"><ele>4.0</ele><time>2026-04-06T05:44:04Z</time></trkpt><trkpt lat="43.30420867314246" lon="10.504114993460218"><ele>4.0</ele><time>2026-04-06T05:44:08Z</time></trkpt><trkpt lat="43.30417552183122" lon="10.50400481699321"><ele>4.0</ele><time>2026-04-06T05:44:12Z</time></trkpt><trkpt lat="43.30413921540275" lon="10.503928573438538"><ele>3.9999999999999996</ele><time>2026-04-06T05:44:16Z</time></trkpt><trkpt lat="43.304103210739626" lon="10.50383045398285"><ele>4.0</ele><time>2026-04-06T05:44:21Z</time></trkpt><trkpt lat="43.30407249193398" lon="10.503754622857754"><ele>4.0</ele><time>2026-04-06T05:44:25Z</time></trkpt><trkpt lat="43.30404981251962" lon="10.503668787296215"><ele>3.9999999999999996</ele><time>2026-04-06T05:44:29Z</time></trkpt><trkpt lat="43.30400900994326" lon="10.503592547807472"><ele>4.0</ele><time>2026-04-06T05:44:33Z</time></trkpt><trkpt lat="43.3039778335592" lon="10.503509180074664"><ele>4.0</ele><time>2026-04-06T05:44:38Z</time></trkpt><trkpt lat="43.30392822426997" lon="10.503440954027683"><ele>3.8571428571428568</ele><time>2026-04-06T05:44:44Z</time></trkpt><trkpt lat="43.303866658217466" lon="10.503374529224939"><ele>3.714285714285714</ele><time>2026-04-06T05:44:49Z</time></trkpt><trkpt lat="43.30382152380112" lon="10.503309690919949"><ele>3.571428571428571</ele><time>2026-04-06T05:44:53Z</time></trkpt><trkpt lat="43.30376977793392" lon="10.503237343788813"><ele>3.4285714285714284</ele><time>2026-04-06T05:44:58Z</time></trkpt><trkpt lat="43.303736208705736" lon="10.503149937108548"><ele>3.2857142857142856</ele><time>2026-04-06T05:45:05Z</time></trkpt><trkpt lat="43.30370575301" lon="10.503062644131784"><ele>3.1428571428571423</ele><time>2026-04-06T05:45:09Z</time></trkpt><trkpt lat="43.30367098265599" lon="10.50299038019527"><ele>3.0</ele><time>2026-04-06T05:45:12Z</time></trkpt><trkpt lat="43.30365688350761" lon="10.502905966220169"><ele>2.9999999999999996</ele><time>2026-04-06T05:45:16Z</time></trkpt><trkpt lat="43.30362555731063" lon="10.50282054453012"><ele>3.0</ele><time>2026-04-06T05:45:21Z</time></trkpt><trkpt lat="43.303580320843906" lon="10.502725563563796"><ele>3.0</ele><time>2026-04-06T05:45:26Z</time></trkpt><trkpt lat="43.30353880778841" lon="10.5026511069756"><ele>3.0</ele><time>2026-04-06T05:45:30Z</time></trkpt><trkpt lat="43.30349946579723" lon="10.502571509254265"><ele>3.0</ele><time>2026-04-06T05:45:33Z</time></trkpt><trkpt lat="43.30346758076694" lon="10.502489572543563"><ele>2.9999999999999996</ele><time>2026-04-06T05:45:37Z</time></trkpt><trkpt lat="43.30341513398932" lon="10.50242313548575"><ele>3.0</ele><time>2026-04-06T05:45:42Z</time></trkpt><trkpt lat="43.303375330490425" lon="10.502343148624307"><ele>2.9999999999999996</ele><time>2026-04-06T05:45:46Z</time></trkpt><trkpt lat="43.30333804970516" lon="10.502273105019437"><ele>3.0</ele><time>2026-04-06T05:45:50Z</time></trkpt><trkpt lat="43.303303567469165" lon="10.502190942077284"><ele>3.0</ele><time>2026-04-06T05:45:55Z</time></trkpt><trkpt lat="43.3032691258701" lon="10.502101285712847"><ele>3.0</ele><time>2026-04-06T05:46:00Z</time></trkpt><trkpt lat="43.303232646341044" lon="10.502005405664468"><ele>3.0</ele><time>2026-04-06T05:46:06Z</time></trkpt><trkpt lat="43.30319582852822" lon="10.501927947897617"><ele>2.9999999999999996</ele><time>2026-04-06T05:46:10Z</time></trkpt><trkpt lat="43.30316756267251" lon="10.5018457888749"><ele>3.0</ele><time>2026-04-06T05:46:15Z</time></trkpt><trkpt lat="43.30311849195164" lon="10.501751663376133"><ele>2.9999999999999996</ele><time>2026-04-06T05:46:19Z</time></trkpt><trkpt lat="43.30308363637517" lon="10.501669107286979"><ele>3.0</ele><time>2026-04-06T05:46:23Z</time></trkpt><trkpt lat="43.303041737329735" lon="10.501597143850763"><ele>3.0</ele><time>2026-04-06T05:46:27Z</time></trkpt><trkpt lat="43.30300371428669" lon="10.501521197553856"><ele>3.0</ele><time>2026-04-06T05:46:31Z</time></trkpt><trkpt lat="43.30296209679329" lon="10.501427803487935"><ele>3.0</ele><time>2026-04-06T05:46:35Z</time></trkpt><trkpt lat="43.30292803560824" lon="10.501342809107872"><ele>2.9999999999999996</ele><time>2026-04-06T05:46:39Z</time></trkpt><trkpt lat="43.30287954502353" lon="10.501281963402521"><ele>3.0</ele><time>2026-04-06T05:46:43Z</time></trkpt><trkpt lat="43.30284884419169" lon="10.501204842755522"><ele>3.1428571428571423</ele><time>2026-04-06T05:46:47Z</time></trkpt><trkpt lat="43.30281531702271" lon="10.501124776988222"><ele>3.2857142857142856</ele><time>2026-04-06T05:46:51Z</time></trkpt><trkpt lat="43.30277526994759" lon="10.50104408181135"><ele>3.4285714285714284</ele><time>2026-04-06T05:46:56Z</time></trkpt><trkpt lat="43.30273149337087" lon="10.500975587083001"><ele>3.571428571428571</ele><time>2026-04-06T05:47:00Z</time></trkpt><trkpt lat="43.30268571056816" lon="10.500914146889729"><ele>3.714285714285714</ele><time>2026-04-06T05:47:04Z</time></trkpt><trkpt lat="43.302639615117215" lon="10.500832596645104"><ele>3.8571428571428568</ele><time>2026-04-06T05:47:09Z</time></trkpt><trkpt lat="43.30260967680265" lon="10.500751526488363"><ele>4.0</ele><time>2026-04-06T05:47:13Z</time></trkpt><trkpt lat="43.3025712952998" lon="10.500675740682764"><ele>4.0</ele><time>2026-04-06T05:47:18Z</time></trkpt><trkpt lat="43.302534419563564" lon="10.500597480852397"><ele>3.9999999999999996</ele><time>2026-04-06T05:47:22Z</time></trkpt><trkpt lat="43.302494236545186" lon="10.500513651933625"><ele>4.0</ele><time>2026-04-06T05:47:27Z</time></trkpt><trkpt lat="43.302451280378776" lon="10.500442105723351"><ele>4.0</ele><time>2026-04-06T05:47:32Z</time></trkpt><trkpt lat="43.302415921258785" lon="10.50035729490971"><ele>3.9999999999999996</ele><time>2026-04-06T05:47:38Z</time></trkpt><trkpt lat="43.30238404804682" lon="10.500274380844077"><ele>4.0</ele><time>2026-04-06T05:47:42Z</time></trkpt><trkpt lat="43.30235431863666" lon="10.500197658117408"><ele>4.0</ele><time>2026-04-06T05:47:45Z</time></trkpt><trkpt lat="43.30230763488295" lon="10.500124350409495"><ele>4.0</ele><time>2026-04-06T05:47:49Z</time></trkpt><trkpt lat="43.30226746518407" lon="10.500031866492156"><ele>3.9999999999999996</ele><time>2026-04-06T05:47:54Z</time></trkpt><trkpt lat="43.30222849990588" lon="10.499953204610815"><ele>4.0</ele><time>2026-04-06T05:47:58Z</time></trkpt><trkpt lat="43.30218519938644" lon="10.499872971443247"><ele>4.0</ele><time>2026-04-06T05:48:03Z</time></trkpt><trkpt lat="43.30217068802939" lon="10.499784326989394"><ele>3.9999999999999996</ele><time>2026-04-06T05:48:06Z</time></trkpt><trkpt lat="43.30212947787266" lon="10.49970456029112"><ele>4.0</ele><time>2026-04-06T05:48:10Z</time></trkpt><trkpt lat="43.302080875836126" lon="10.49964593190841"><ele>4.0</ele><time>2026-04-06T05:48:14Z</time></trkpt><trkpt lat="43.302045870980876" lon="10.499544988963352"><ele>4.0</ele><time>2026-04-06T05:48:19Z</time></trkpt><trkpt lat="43.30200751998604" lon="10.499468121186359"><ele>3.9999999999999996</ele><time>2026-04-06T05:48:23Z</time></trkpt><trkpt lat="43.301965535075084" lon="10.499400384139767"><ele>4.0</ele><time>2026-04-06T05:48:27Z</time></trkpt><trkpt lat="43.30191593479803" lon="10.499332457193487"><ele>4.0</ele><time>2026-04-06T05:48:33Z</time></trkpt><trkpt lat="43.30187632244487" lon="10.499260715856812"><ele>3.9999999999999996</ele><time>2026-04-06T05:48:38Z</time></trkpt><trkpt lat="43.30182762177548" lon="10.49918551668947"><ele>4.0</ele><time>2026-04-06T05:48:43Z</time></trkpt><trkpt lat="43.30178553614666" lon="10.499091906251591"><ele>4.0</ele><time>2026-04-06T05:48:48Z</time></trkpt><trkpt lat="43.301751792488766" lon="10.49898305901595"><ele>4.0</ele><time>2026-04-06T05:48:52Z</time></trkpt><trkpt lat="43.30174188025005" lon="10.498884239308433"><ele>3.9999999999999996</ele><time>2026-04-06T05:48:56Z</time></trkpt><trkpt lat="43.30171531725162" lon="10.498793228891826"><ele>4.0</ele><time>2026-04-06T05:49:00Z</time></trkpt><trkpt lat="43.30166162872552" lon="10.49873714182771"><ele>4.0</ele><time>2026-04-06T05:49:05Z</time></trkpt><trkpt lat="43.30162303617808" lon="10.498648173561481"><ele>3.9999999999999996</ele><time>2026-04-06T05:49:10Z</time></trkpt><trkpt lat="43.30159784288775" lon="10.498554486097369"><ele>4.0</ele><time>2026-04-06T05:49:16Z</time></trkpt><trkpt lat="43.301554551139326" lon="10.498465417707873"><ele>4.0</ele><time>2026-04-06T05:49:21Z</time></trkpt><trkpt lat="43.301528264508654" lon="10.498369689303932"><ele>4.0</ele><time>2026-04-06T05:49:25Z</time></trkpt><trkpt lat="43.30149155847275" lon="10.49828894047392"><ele>3.9999999999999996</ele><time>2026-04-06T05:49:28Z</time></trkpt><trkpt lat="43.301445181605075" lon="10.49820110028725"><ele>4.0</ele><time>2026-04-06T05:49:32Z</time></trkpt><trkpt lat="43.301390812072384" lon="10.498130455234257"><ele>4.0</ele><time>2026-04-06T05:49:36Z</time></trkpt><trkpt lat="43.30133938808453" lon="10.498061811363756"><ele>3.9999999999999996</ele><time>2026-04-06T05:49:41Z</time></trkpt><trkpt lat="43.30129407471628" lon="10.497986130626076"><ele>4.0</ele><time>2026-04-06T05:49:46Z</time></trkpt><trkpt lat="43.30128796062446" lon="10.497893950917963"><ele>4.0</ele><time>2026-04-06T05:49:51Z</time></trkpt><trkpt lat="43.301250222987626" lon="10.497824298426568"><ele>3.8571428571428568</ele><time>2026-04-06T05:49:55Z</time></trkpt><trkpt lat="43.301194251519746" lon="10.497740822273922"><ele>3.714285714285714</ele><time>2026-04-06T05:50:00Z</time></trkpt><trkpt lat="43.301154712569506" lon="10.497663084300417"><ele>3.571428571428571</ele><time>2026-04-06T05:50:04Z</time></trkpt><trkpt lat="43.3011177240716" lon="10.497575361481358"><ele>3.4285714285714284</ele><time>2026-04-06T05:50:08Z</time></trkpt><trkpt lat="43.30108656504705" lon="10.497489204348641"><ele>3.2857142857142856</ele><time>2026-04-06T05:50:12Z</time></trkpt><trkpt lat="43.301050817927525" lon="10.497396725737017"><ele>3.1428571428571423</ele><time>2026-04-06T05:50:16Z</time></trkpt><trkpt lat="43.301016947585076" lon="10.497313582767195"><ele>3.0</ele><time>2026-04-06T05:50:20Z</time></trkpt><trkpt lat="43.30097804032903" lon="10.497239256612414"><ele>2.9999999999999996</ele><time>2026-04-06T05:50:24Z</time></trkpt><trkpt lat="43.30093181600002" lon="10.497171367159142"><ele>3.0</ele><time>2026-04-06T05:50:29Z</time></trkpt><trkpt lat="43.30087998562985" lon="10.497112972304265"><ele>3.0</ele><time>2026-04-06T05:50:34Z</time></trkpt><trkpt lat="43.30083323238978" lon="10.497044628642701"><ele>3.0</ele><time>2026-04-06T05:50:39Z</time></trkpt><trkpt lat="43.30078970207543" lon="10.496965352654646"><ele>3.0</ele><time>2026-04-06T05:50:44Z</time></trkpt><trkpt lat="43.30077364699281" lon="10.496851794864392"><ele>2.9999999999999996</ele><time>2026-04-06T05:50:48Z</time></trkpt><trkpt lat="43.30071040643293" lon="10.496849581420424"><ele>3.0</ele><time>2026-04-06T05:50:59Z</time></trkpt><trkpt lat="43.30065045990035" lon="10.496792119052497"><ele>2.9999999999999996</ele><time>2026-04-06T05:51:07Z</time></trkpt><trkpt lat="43.30068587689886" lon="10.496711748787513"><ele>3.0</ele><time>2026-04-06T05:51:14Z</time></trkpt><trkpt lat="43.30067579346402" lon="10.496613067110651"><ele>3.0</ele><time>2026-04-06T05:51:21Z</time></trkpt><trkpt lat="43.30063046000491" lon="10.496527155698356"><ele>3.0</ele><time>2026-04-06T05:51:26Z</time></trkpt><trkpt lat="43.30059504652339" lon="10.49642811718484"><ele>3.0</ele><time>2026-04-06T05:51:30Z</time></trkpt><trkpt lat="43.30055228516513" lon="10.49635335977088"><ele>2.9999999999999996</ele><time>2026-04-06T05:51:34Z</time></trkpt><trkpt lat="43.30050669389002" lon="10.496283442218537"><ele>3.0</ele><time>2026-04-06T05:51:38Z</time></trkpt><trkpt lat="43.30047190207366" lon="10.496208085569082"><ele>2.9999999999999996</ele><time>2026-04-06T05:51:43Z</time></trkpt><trkpt lat="43.3004163562225" lon="10.496145909589726"><ele>3.0</ele><time>2026-04-06T05:51:49Z</time></trkpt><trkpt lat="43.30037931181644" lon="10.496053078684346"><ele>3.0</ele><time>2026-04-06T05:51:54Z</time></trkpt><trkpt lat="43.300345973050824" lon="10.495972055392516"><ele>3.0</ele><time>2026-04-06T05:51:58Z</time></trkpt><trkpt lat="43.3002998468811" lon="10.495886719426055"><ele>3.0</ele><time>2026-04-06T05:52:03Z</time></trkpt><trkpt lat="43.3002531762459" lon="10.495815293752688"><ele>2.9999999999999996</ele><time>2026-04-06T05:52:07Z</time></trkpt><trkpt lat="43.300210091635456" lon="10.495725759463662"><ele>3.0</ele><time>2026-04-06T05:52:11Z</time></trkpt><trkpt lat="43.300173213833226" lon="10.495651428411906"><ele>2.9999999999999996</ele><time>2026-04-06T05:52:16Z</time></trkpt><trkpt lat="43.30013815612851" lon="10.495564088082455"><ele>3.0</ele><time>2026-04-06T05:52:21Z</time></trkpt><trkpt lat="43.30011097674212" lon="10.49547951410266"><ele>3.0</ele><time>2026-04-06T05:52:26Z</time></trkpt><trkpt lat="43.3000526426611" lon="10.495432245209262"><ele>3.0</ele><time>2026-04-06T05:52:32Z</time></trkpt><trkpt lat="43.29999748962695" lon="10.49534883117381"><ele>3.0</ele><time>2026-04-06T05:52:38Z</time></trkpt><trkpt lat="43.29995280189051" lon="10.495282076020299"><ele>2.9999999999999996</ele><time>2026-04-06T05:52:43Z</time></trkpt><trkpt lat="43.2999174295224" lon="10.495195975953084"><ele>3.0</ele><time>2026-04-06T05:52:46Z</time></trkpt><trkpt lat="43.2998859975308" lon="10.495116093272744"><ele>2.9999999999999996</ele><time>2026-04-06T05:52:49Z</time></trkpt><trkpt lat="43.29985158886897" lon="10.495017832365864"><ele>3.0</ele><time>2026-04-06T05:52:53Z</time></trkpt><trkpt lat="43.299833649245784" lon="10.494918806614852"><ele>3.0</ele><time>2026-04-06T05:52:56Z</time></trkpt><trkpt lat="43.29982378538852" lon="10.494827963405326"><ele>3.0</ele><time>2026-04-06T05:52:59Z</time></trkpt><trkpt lat="43.29980940446096" lon="10.494730327918006"><ele>3.0</ele><time>2026-04-06T05:53:04Z</time></trkpt><trkpt lat="43.2997804528227" lon="10.494639607975115"><ele>2.9999999999999996</ele><time>2026-04-06T05:53:10Z</time></trkpt><trkpt lat="43.29972602527742" lon="10.494584600441893"><ele>3.0</ele><time>2026-04-06T05:53:14Z</time></trkpt><trkpt lat="43.29966755031195" lon="10.49452249295724"><ele>3.2857142857142856</ele><time>2026-04-06T05:53:18Z</time></trkpt><trkpt lat="43.299628110734595" lon="10.494449526376"><ele>3.571428571428571</ele><time>2026-04-06T05:53:23Z</time></trkpt><trkpt lat="43.29959245480296" lon="10.494358189886073"><ele>3.8571428571428568</ele><time>2026-04-06T05:53:28Z</time></trkpt><trkpt lat="43.29954701235977" lon="10.494270670156105"><ele>4.142857142857142</ele><time>2026-04-06T05:53:33Z</time></trkpt><trkpt lat="43.29950670561025" lon="10.494192065446647"><ele>4.428571428571429</ele><time>2026-04-06T05:53:38Z</time></trkpt><trkpt lat="43.299453450744856" lon="10.494128467312096"><ele>4.714285714285714</ele><time>2026-04-06T05:53:43Z</time></trkpt><trkpt lat="43.29940094730066" lon="10.494073381612163"><ele>5.0</ele><time>2026-04-06T05:53:47Z</time></trkpt><trkpt lat="43.29935255807195" lon="10.494017076649758"><ele>5.0</ele><time>2026-04-06T05:53:51Z</time></trkpt><trkpt lat="43.29931218831372" lon="10.493938907550564"><ele>5.0</ele><time>2026-04-06T05:53:57Z</time></trkpt><trkpt lat="43.29924601831446" lon="10.493904076567501"><ele>5.0</ele><time>2026-04-06T05:54:05Z</time></trkpt><trkpt lat="43.29920328144262" lon="10.493972384501333"><ele>5.0</ele><time>2026-04-06T05:54:17Z</time></trkpt><trkpt lat="43.299192509786394" lon="10.4940588722095"><ele>5.0</ele><time>2026-04-06T05:54:25Z</time></trkpt><trkpt lat="43.29915916126403" lon="10.494132410190298"><ele>5.0</ele><time>2026-04-06T05:54:32Z</time></trkpt><trkpt lat="43.29911475126209" lon="10.494199211719964"><ele>5.0</ele><time>2026-04-06T05:54:37Z</time></trkpt><trkpt lat="43.29905268534841" lon="10.494269399428248"><ele>5.0</ele><time>2026-04-06T05:54:41Z</time></trkpt><trkpt lat="43.299005690543666" lon="10.494343867567636"><ele>5.0</ele><time>2026-04-06T05:54:46Z</time></trkpt><trkpt lat="43.2989314560645" lon="10.494384605136181"><ele>5.0</ele><time>2026-04-06T05:54:50Z</time></trkpt><trkpt lat="43.29886216753951" lon="10.494419599879677"><ele>5.0</ele><time>2026-04-06T05:54:53Z</time></trkpt><trkpt lat="43.29880117392578" lon="10.494446734545205"><ele>5.0</ele><time>2026-04-06T05:54:56Z</time></trkpt><trkpt lat="43.29873305787938" lon="10.494487008255916"><ele>5.0</ele><time>2026-04-06T05:55:01Z</time></trkpt><trkpt lat="43.298706923279" lon="10.494572812038127"><ele>5.0</ele><time>2026-04-06T05:55:05Z</time></trkpt><trkpt lat="43.29870108009808" lon="10.494672059552368"><ele>5.0</ele><time>2026-04-06T05:55:10Z</time></trkpt><trkpt lat="43.29870034790513" lon="10.494774745251554"><ele>5.0</ele><time>2026-04-06T05:55:16Z</time></trkpt><trkpt lat="43.2987180102932" lon="10.4948592357584"><ele>5.0</ele><time>2026-04-06T05:55:21Z</time></trkpt><trkpt lat="43.298658864043915" lon="10.494924890059393"><ele>5.0</ele><time>2026-04-06T05:55:26Z</time></trkpt><trkpt lat="43.29862942086727" lon="10.495018269044879"><ele>5.0</ele><time>2026-04-06T05:55:34Z</time></trkpt><trkpt lat="43.298565320666164" lon="10.495090360520631"><ele>5.0</ele><time>2026-04-06T05:55:40Z</time></trkpt><trkpt lat="43.29846922759694" lon="10.49514994729814"><ele>5.0</ele><time>2026-04-06T05:55:44Z</time></trkpt><trkpt lat="43.29839404314493" lon="10.495179777835755"><ele>5.0</ele><time>2026-04-06T05:55:46Z</time></trkpt><trkpt lat="43.298333874395055" lon="10.495225596284326"><ele>5.0</ele><time>2026-04-06T05:55:48Z</time></trkpt><trkpt lat="43.29829797406309" lon="10.495298999595885"><ele>5.0</ele><time>2026-04-06T05:55:52Z</time></trkpt><trkpt lat="43.29824179796902" lon="10.495343458562303"><ele>5.0</ele><time>2026-04-06T05:55:55Z</time></trkpt><trkpt lat="43.29820183990732" lon="10.495411620100121"><ele>5.0</ele><time>2026-04-06T05:56:02Z</time></trkpt><trkpt lat="43.29817144747608" lon="10.495490453149516"><ele>5.0</ele><time>2026-04-06T05:56:11Z</time></trkpt><trkpt lat="43.29819349478713" lon="10.495579566685192"><ele>5.0</ele><time>2026-04-06T05:56:18Z</time></trkpt><trkpt lat="43.298152417173824" lon="10.495654452883972"><ele>5.0</ele><time>2026-04-06T05:56:23Z</time></trkpt><trkpt lat="43.29811214081144" lon="10.495726689019383"><ele>5.0</ele><time>2026-04-06T05:56:28Z</time></trkpt><trkpt lat="43.29806667276777" lon="10.495800106346207"><ele>5.0</ele><time>2026-04-06T05:56:32Z</time></trkpt><trkpt lat="43.29802718849767" lon="10.495873014870456"><ele>5.0</ele><time>2026-04-06T05:56:35Z</time></trkpt><trkpt lat="43.29796653119123" lon="10.495937551660077"><ele>5.0</ele><time>2026-04-06T05:56:38Z</time></trkpt><trkpt lat="43.297895235685274" lon="10.495998412594778"><ele>5.0</ele><time>2026-04-06T05:56:41Z</time></trkpt><trkpt lat="43.2978243753485" lon="10.496066298376732"><ele>5.166666666666667</ele><time>2026-04-06T05:56:44Z</time></trkpt><trkpt lat="43.297778412175035" lon="10.49612618310496"><ele>5.333333333333334</ele><time>2026-04-06T05:56:48Z</time></trkpt><trkpt lat="43.2977254241084" lon="10.49619429763561"><ele>5.5</ele><time>2026-04-06T05:56:56Z</time></trkpt><trkpt lat="43.29765381268899" lon="10.496262099922518"><ele>5.666666666666667</ele><time>2026-04-06T05:57:00Z</time></trkpt><trkpt lat="43.297604873367135" lon="10.496322318314784"><ele>5.833333333333333</ele><time>2026-04-06T05:57:03Z</time></trkpt><trkpt lat="43.29754036650363" lon="10.496381089448102"><ele>6.0</ele><time>2026-04-06T05:57:06Z</time></trkpt><trkpt lat="43.29746183652178" lon="10.496423315745783"><ele>5.666666666666667</ele><time>2026-04-06T05:57:08Z</time></trkpt><trkpt lat="43.29739961045966" lon="10.496460845129501"><ele>5.333333333333333</ele><time>2026-04-06T05:57:10Z</time></trkpt><trkpt lat="43.29733452145135" lon="10.496538765622816"><ele>5.0</ele><time>2026-04-06T05:57:13Z</time></trkpt><trkpt lat="43.29729285952259" lon="10.496614131720351"><ele>4.666666666666666</ele><time>2026-04-06T05:57:17Z</time></trkpt><trkpt lat="43.29726610983058" lon="10.496716029152173"><ele>4.333333333333333</ele><time>2026-04-06T05:57:23Z</time></trkpt><trkpt lat="43.29723240802236" lon="10.496801306655387"><ele>4.0</ele><time>2026-04-06T05:57:29Z</time></trkpt><trkpt lat="43.29718292276381" lon="10.496885112262405"><ele>3.8571428571428568</ele><time>2026-04-06T05:57:33Z</time></trkpt><trkpt lat="43.297104532689694" lon="10.496950629589962"><ele>3.714285714285714</ele><time>2026-04-06T05:57:36Z</time></trkpt><trkpt lat="43.29703051686605" lon="10.497008412161728"><ele>3.571428571428571</ele><time>2026-04-06T05:57:39Z</time></trkpt><trkpt lat="43.296976710197725" lon="10.497054333876283"><ele>3.4285714285714284</ele><time>2026-04-06T05:57:42Z</time></trkpt><trkpt lat="43.29691238495157" lon="10.49709594541731"><ele>3.2857142857142856</ele><time>2026-04-06T05:57:47Z</time></trkpt><trkpt lat="43.29685318568895" lon="10.497144909743463"><ele>3.1428571428571423</ele><time>2026-04-06T05:57:52Z</time></trkpt><trkpt lat="43.29679683656982" lon="10.49719312703409"><ele>3.0</ele><time>2026-04-06T05:57:56Z</time></trkpt><trkpt lat="43.29674542667052" lon="10.497253567650409"><ele>3.2857142857142856</ele><time>2026-04-06T05:58:00Z</time></trkpt><trkpt lat="43.29672097914644" lon="10.497337690454417"><ele>3.571428571428571</ele><time>2026-04-06T05:58:06Z</time></trkpt><trkpt lat="43.296704107348916" lon="10.497423113165121"><ele>3.8571428571428568</ele><time>2026-04-06T05:58:12Z</time></trkpt><trkpt lat="43.29669127933134" lon="10.497507913474454"><ele>4.142857142857142</ele><time>2026-04-06T05:58:19Z</time></trkpt><trkpt lat="43.29664901847628" lon="10.497576096276346"><ele>4.428571428571429</ele><time>2026-04-06T05:58:25Z</time></trkpt><trkpt lat="43.29663846066205" lon="10.497678745890097"><ele>4.714285714285714</ele><time>2026-04-06T05:58:30Z</time></trkpt><trkpt lat="43.29664046340137" lon="10.497766817527326"><ele>5.0</ele><time>2026-04-06T05:58:34Z</time></trkpt><trkpt lat="43.296615279744536" lon="10.497854907777613"><ele>5.285714285714286</ele><time>2026-04-06T05:58:40Z</time></trkpt><trkpt lat="43.29661276135594" lon="10.497945373416197"><ele>5.571428571428571</ele><time>2026-04-06T05:58:45Z</time></trkpt><trkpt lat="43.29663034581422" lon="10.49803104406184"><ele>5.857142857142858</ele><time>2026-04-06T05:58:49Z</time></trkpt><trkpt lat="43.29658866173953" lon="10.49811116419482"><ele>6.142857142857142</ele><time>2026-04-06T05:58:55Z</time></trkpt><trkpt lat="43.296552700601225" lon="10.498191279300588"><ele>6.428571428571429</ele><time>2026-04-06T05:58:59Z</time></trkpt><trkpt lat="43.296492940881514" lon="10.498275447286094"><ele>6.714285714285714</ele><time>2026-04-06T05:59:03Z</time></trkpt><trkpt lat="43.29644676845187" lon="10.498349776529519"><ele>7.0</ele><time>2026-04-06T05:59:07Z</time></trkpt><trkpt lat="43.29641581018274" lon="10.498433843095539"><ele>7.500000000000001</ele><time>2026-04-06T05:59:10Z</time></trkpt><trkpt lat="43.29637965242975" lon="10.498523399740264"><ele>8.0</ele><time>2026-04-06T05:59:14Z</time></trkpt><trkpt lat="43.296348192927866" lon="10.49862572437912"><ele>8.5</ele><time>2026-04-06T05:59:18Z</time></trkpt><trkpt lat="43.29630972643302" lon="10.4987253660334"><ele>9.0</ele><time>2026-04-06T05:59:23Z</time></trkpt><trkpt lat="43.29627253506197" lon="10.498817000570053"><ele>9.5</ele><time>2026-04-06T05:59:29Z</time></trkpt><trkpt lat="43.29621971777181" lon="10.498882161423971"><ele>10.0</ele><time>2026-04-06T05:59:34Z</time></trkpt><trkpt lat="43.29615795508368" lon="10.498931543018758"><ele>10.0</ele><time>2026-04-06T05:59:38Z</time></trkpt><trkpt lat="43.29612611037998" lon="10.49900899214136"><ele>10.0</ele><time>2026-04-06T05:59:44Z</time></trkpt><trkpt lat="43.29609300393994" lon="10.499083095868379"><ele>10.0</ele><time>2026-04-06T05:59:49Z</time></trkpt><trkpt lat="43.29607058110604" lon="10.49918172445173"><ele>10.0</ele><time>2026-04-06T05:59:54Z</time></trkpt><trkpt lat="43.2960197415944" lon="10.499250332826465"><ele>10.0</ele><time>2026-04-06T06:00:00Z</time></trkpt><trkpt lat="43.29599409195778" lon="10.499330666974702"><ele>10.0</ele><time>2026-04-06T06:00:06Z</time></trkpt><trkpt lat="43.29596845076155" lon="10.499411043787468"><ele>10.0</ele><time>2026-04-06T06:00:10Z</time></trkpt><trkpt lat="43.29593883823695" lon="10.499491278522736"><ele>9.714285714285714</ele><time>2026-04-06T06:00:13Z</time></trkpt><trkpt lat="43.29590510219904" lon="10.499587990660707"><ele>9.428571428571429</ele><time>2026-04-06T06:00:17Z</time></trkpt><trkpt lat="43.295869564344535" lon="10.49966640107275"><ele>9.142857142857142</ele><time>2026-04-06T06:00:21Z</time></trkpt><trkpt lat="43.295852671397874" lon="10.499757358461594"><ele>8.857142857142858</ele><time>2026-04-06T06:00:25Z</time></trkpt><trkpt lat="43.29582689221213" lon="10.499848120530402"><ele>8.571428571428571</ele><time>2026-04-06T06:00:30Z</time></trkpt><trkpt lat="43.29580179912559" lon="10.499930087961411"><ele>8.285714285714285</ele><time>2026-04-06T06:00:33Z</time></trkpt><trkpt lat="43.29578780766579" lon="10.50002124257295"><ele>8.0</ele><time>2026-04-06T06:00:38Z</time></trkpt><trkpt lat="43.29582174596315" lon="10.500096871561743"><ele>8.0</ele><time>2026-04-06T06:00:41Z</time></trkpt><trkpt lat="43.29581371492103" lon="10.500184992631693"><ele>7.999999999999999</ele><time>2026-04-06T06:00:44Z</time></trkpt><trkpt lat="43.29577152509811" lon="10.500257749858559"><ele>8.0</ele><time>2026-04-06T06:00:50Z</time></trkpt><trkpt lat="43.295701946538315" lon="10.500278792370528"><ele>8.0</ele><time>2026-04-06T06:00:55Z</time></trkpt><trkpt lat="43.29564586002625" lon="10.500330376068415"><ele>7.999999999999999</ele><time>2026-04-06T06:01:01Z</time></trkpt><trkpt lat="43.29567849067385" lon="10.500444445381738"><ele>8.0</ele><time>2026-04-06T06:01:04Z</time></trkpt><trkpt lat="43.29566343571135" lon="10.500545620948257"><ele>8.0</ele><time>2026-04-06T06:01:07Z</time></trkpt><trkpt lat="43.29562151792601" lon="10.500611479499119"><ele>8.142857142857142</ele><time>2026-04-06T06:01:09Z</time></trkpt><trkpt lat="43.29555982725369" lon="10.500669144805128"><ele>8.285714285714285</ele><time>2026-04-06T06:01:13Z</time></trkpt><trkpt lat="43.295499261357726" lon="10.500730539946359"><ele>8.428571428571429</ele><time>2026-04-06T06:01:16Z</time></trkpt><trkpt lat="43.29543954425156" lon="10.500770979480222"><ele>8.571428571428571</ele><time>2026-04-06T06:01:20Z</time></trkpt><trkpt lat="43.295384174653876" lon="10.500854806313741"><ele>8.714285714285715</ele><time>2026-04-06T06:01:23Z</time></trkpt><trkpt lat="43.29538031080652" lon="10.500951636860831"><ele>8.857142857142858</ele><time>2026-04-06T06:01:26Z</time></trkpt><trkpt lat="43.29538414281582" lon="10.501052029676368"><ele>9.0</ele><time>2026-04-06T06:01:30Z</time></trkpt><trkpt lat="43.29532132162047" lon="10.501109901548444"><ele>9.0</ele><time>2026-04-06T06:01:34Z</time></trkpt><trkpt lat="43.29526205919873" lon="10.501161777212625"><ele>9.0</ele><time>2026-04-06T06:01:41Z</time></trkpt><trkpt lat="43.29515726050764" lon="10.501149868348781"><ele>9.0</ele><time>2026-04-06T06:01:43Z</time></trkpt><trkpt lat="43.29508197232447" lon="10.501127160649999"><ele>9.0</ele><time>2026-04-06T06:01:45Z</time></trkpt><trkpt lat="43.29501523200658" lon="10.501120213835273"><ele>9.0</ele><time>2026-04-06T06:01:48Z</time></trkpt><trkpt lat="43.29494658691744" lon="10.501122951369728"><ele>9.0</ele><time>2026-04-06T06:01:52Z</time></trkpt><trkpt lat="43.29489009468648" lon="10.501168674761283"><ele>9.000000000000002</ele><time>2026-04-06T06:01:57Z</time></trkpt><trkpt lat="43.29481991437159" lon="10.501197661926604"><ele>9.0</ele><time>2026-04-06T06:02:01Z</time></trkpt><trkpt lat="43.29475589901046" lon="10.501183959975451"><ele>9.0</ele><time>2026-04-06T06:02:06Z</time></trkpt><trkpt lat="43.29469941526097" lon="10.501131536280033"><ele>9.0</ele><time>2026-04-06T06:02:17Z</time></trkpt><trkpt lat="43.2946337833645" lon="10.50108620523787"><ele>9.0</ele><time>2026-04-06T06:02:21Z</time></trkpt><trkpt lat="43.294570532671486" lon="10.501033389049775"><ele>9.000000000000002</ele><time>2026-04-06T06:02:24Z</time></trkpt><trkpt lat="43.29449227010024" lon="10.500996764520345"><ele>9.0</ele><time>2026-04-06T06:02:27Z</time></trkpt><trkpt lat="43.294428432286416" lon="10.500928917091912"><ele>8.571428571428573</ele><time>2026-04-06T06:02:31Z</time></trkpt><trkpt lat="43.29439389372508" lon="10.500840356546513"><ele>8.142857142857142</ele><time>2026-04-06T06:02:36Z</time></trkpt><trkpt lat="43.2943450521922" lon="10.500785059600728"><ele>7.714285714285714</ele><time>2026-04-06T06:02:39Z</time></trkpt><trkpt lat="43.29428477012782" lon="10.500736163895237"><ele>7.2857142857142865</ele><time>2026-04-06T06:02:43Z</time></trkpt><trkpt lat="43.29422485908204" lon="10.500669671369971"><ele>6.857142857142858</ele><time>2026-04-06T06:02:48Z</time></trkpt><trkpt lat="43.29416649130477" lon="10.500615465711956"><ele>6.428571428571428</ele><time>2026-04-06T06:02:55Z</time></trkpt><trkpt lat="43.294099778448846" lon="10.500591182983424"><ele>6.0</ele><time>2026-04-06T06:03:00Z</time></trkpt><trkpt lat="43.29403571845796" lon="10.500563644333747"><ele>5.999999999999999</ele><time>2026-04-06T06:03:04Z</time></trkpt><trkpt lat="43.29397083525588" lon="10.500537005575698"><ele>6.0</ele><time>2026-04-06T06:03:08Z</time></trkpt><trkpt lat="43.293906145987634" lon="10.500457995816403"><ele>6.0</ele><time>2026-04-06T06:03:12Z</time></trkpt><trkpt lat="43.293853771654696" lon="10.50037658565503"><ele>6.0</ele><time>2026-04-06T06:03:15Z</time></trkpt><trkpt lat="43.29380379795923" lon="10.50030903724409"><ele>6.0</ele><time>2026-04-06T06:03:18Z</time></trkpt><trkpt lat="43.29375401605277" lon="10.500254811786325"><ele>5.999999999999999</ele><time>2026-04-06T06:03:22Z</time></trkpt><trkpt lat="43.29369044579573" lon="10.500209142611844"><ele>6.0</ele><time>2026-04-06T06:03:27Z</time></trkpt><trkpt lat="43.29364197499041" lon="10.500127695074983"><ele>5.571428571428571</ele><time>2026-04-06T06:03:31Z</time></trkpt><trkpt lat="43.29358826597902" lon="10.500059745957335"><ele>5.142857142857142</ele><time>2026-04-06T06:03:35Z</time></trkpt><trkpt lat="43.293524588077844" lon="10.500000091803013"><ele>4.7142857142857135</ele><time>2026-04-06T06:03:40Z</time></trkpt><trkpt lat="43.29346699537945" lon="10.49994661418608"><ele>4.285714285714286</ele><time>2026-04-06T06:03:44Z</time></trkpt><trkpt lat="43.29341780698134" lon="10.499889605404448"><ele>3.8571428571428568</ele><time>2026-04-06T06:03:48Z</time></trkpt><trkpt lat="43.293354464219824" lon="10.499864531905144"><ele>3.4285714285714284</ele><time>2026-04-06T06:03:53Z</time></trkpt><trkpt lat="43.29329332033328" lon="10.499818701302065"><ele>3.0</ele><time>2026-04-06T06:03:57Z</time></trkpt><trkpt lat="43.29323493844025" lon="10.499758609008888"><ele>3.0</ele><time>2026-04-06T06:04:02Z</time></trkpt><trkpt lat="43.29320876297653" lon="10.499653043126207"><ele>3.0</ele><time>2026-04-06T06:04:08Z</time></trkpt><trkpt lat="43.2931803075226" lon="10.49956250013568"><ele>3.0</ele><time>2026-04-06T06:04:12Z</time></trkpt><trkpt lat="43.29316552577467" lon="10.499459028838945"><ele>3.0</ele><time>2026-04-06T06:04:16Z</time></trkpt><trkpt lat="43.29315091309483" lon="10.499356836705683"><ele>3.0</ele><time>2026-04-06T06:04:21Z</time></trkpt><trkpt lat="43.29307290861851" lon="10.499354050686241"><ele>3.0</ele><time>2026-04-06T06:04:27Z</time></trkpt><trkpt lat="43.29300193047678" lon="10.499385670804608"><ele>3.0</ele><time>2026-04-06T06:04:30Z</time></trkpt><trkpt lat="43.29294240934051" lon="10.49943269699656"><ele>3.0</ele><time>2026-04-06T06:04:34Z</time></trkpt><trkpt lat="43.29288222181566" lon="10.499475556103523"><ele>3.0</ele><time>2026-04-06T06:04:41Z</time></trkpt><trkpt lat="43.292811254952746" lon="10.499450568778895"><ele>3.0</ele><time>2026-04-06T06:04:46Z</time></trkpt><trkpt lat="43.29274533423679" lon="10.499507221818122"><ele>3.0</ele><time>2026-04-06T06:04:50Z</time></trkpt><trkpt lat="43.29269929102308" lon="10.499639693653235"><ele>3.0</ele><time>2026-04-06T06:04:54Z</time></trkpt><trkpt lat="43.29264617116071" lon="10.499704931378037"><ele>2.9999999999999996</ele><time>2026-04-06T06:05:02Z</time></trkpt><trkpt lat="43.29257714024475" lon="10.499756841159922"><ele>3.0</ele><time>2026-04-06T06:05:08Z</time></trkpt><trkpt lat="43.2925383947537" lon="10.499826728765244"><ele>3.0</ele><time>2026-04-06T06:05:11Z</time></trkpt><trkpt lat="43.292482181855185" lon="10.499884282239028"><ele>3.0</ele><time>2026-04-06T06:05:14Z</time></trkpt><trkpt lat="43.29240718472068" lon="10.499890106091776"><ele>3.0</ele><time>2026-04-06T06:05:20Z</time></trkpt><trkpt lat="43.29242361725709" lon="10.499806571467118"><ele>2.9999999999999996</ele><time>2026-04-06T06:05:34Z</time></trkpt><trkpt lat="43.292465888891954" lon="10.499738646545033"><ele>3.0</ele><time>2026-04-06T06:05:39Z</time></trkpt><trkpt lat="43.29252560333237" lon="10.499677685021975"><ele>2.9999999999999996</ele><time>2026-04-06T06:05:43Z</time></trkpt><trkpt lat="43.292584715340666" lon="10.499631778190825"><ele>3.0</ele><time>2026-04-06T06:05:47Z</time></trkpt><trkpt lat="43.29263339288708" lon="10.499571743193295"><ele>3.0</ele><time>2026-04-06T06:05:51Z</time></trkpt><trkpt lat="43.29268394130965" lon="10.4995157942731"><ele>3.0</ele><time>2026-04-06T06:05:55Z</time></trkpt><trkpt lat="43.29273863937926" lon="10.49946593983742"><ele>3.0</ele><time>2026-04-06T06:06:00Z</time></trkpt><trkpt lat="43.29279840522103" lon="10.49941090862541"><ele>2.9999999999999996</ele><time>2026-04-06T06:06:06Z</time></trkpt><trkpt lat="43.292863638230024" lon="10.499438382607673"><ele>3.0</ele><time>2026-04-06T06:06:11Z</time></trkpt><trkpt lat="43.29292680969931" lon="10.499411627626554"><ele>2.8333333333333335</ele><time>2026-04-06T06:06:17Z</time></trkpt><trkpt lat="43.292956009110476" lon="10.499301049086101"><ele>2.6666666666666665</ele><time>2026-04-06T06:06:20Z</time></trkpt><trkpt lat="43.292992011770586" lon="10.499219032119996"><ele>2.5</ele><time>2026-04-06T06:06:25Z</time></trkpt><trkpt lat="43.293035345353104" lon="10.49914507327558"><ele>2.333333333333333</ele><time>2026-04-06T06:06:29Z</time></trkpt><trkpt lat="43.29310721914315" lon="10.499083504267968"><ele>2.1666666666666665</ele><time>2026-04-06T06:06:33Z</time></trkpt><trkpt lat="43.29316760960784" lon="10.499039830530348"><ele>2.0</ele><time>2026-04-06T06:06:36Z</time></trkpt><trkpt lat="43.293234398794276" lon="10.498984309495357"><ele>2.0</ele><time>2026-04-06T06:06:40Z</time></trkpt><trkpt lat="43.293287636587166" lon="10.498927356641204"><ele>1.9999999999999998</ele><time>2026-04-06T06:06:44Z</time></trkpt><trkpt lat="43.293338494734186" lon="10.49886832375898"><ele>2.0</ele><time>2026-04-06T06:06:48Z</time></trkpt><trkpt lat="43.293396011075195" lon="10.498801084622334"><ele>2.0</ele><time>2026-04-06T06:06:53Z</time></trkpt><trkpt lat="43.29345300706245" lon="10.498738021811679"><ele>1.9999999999999998</ele><time>2026-04-06T06:06:57Z</time></trkpt><trkpt lat="43.29351585524765" lon="10.498696477517012"><ele>2.0</ele><time>2026-04-06T06:07:01Z</time></trkpt><trkpt lat="43.29357044901232" lon="10.49864589037611"><ele>2.0</ele><time>2026-04-06T06:07:06Z</time></trkpt><trkpt lat="43.2936285260203" lon="10.498588435696565"><ele>1.857142857142857</ele><time>2026-04-06T06:07:11Z</time></trkpt><trkpt lat="43.29368867215141" lon="10.498534759405786"><ele>1.714285714285714</ele><time>2026-04-06T06:07:16Z</time></trkpt><trkpt lat="43.29374525173161" lon="10.498477272580159"><ele>1.5714285714285714</ele><time>2026-04-06T06:07:21Z</time></trkpt><trkpt lat="43.29379881845224" lon="10.498404562303351"><ele>1.4285714285714284</ele><time>2026-04-06T06:07:28Z</time></trkpt><trkpt lat="43.293853151515414" lon="10.498343307651249"><ele>1.2857142857142856</ele><time>2026-04-06T06:07:34Z</time></trkpt><trkpt lat="43.2939177272489" lon="10.498284517969013"><ele>1.1428571428571428</ele><time>2026-04-06T06:07:39Z</time></trkpt><trkpt lat="43.29398606000684" lon="10.498235029968269"><ele>1.0</ele><time>2026-04-06T06:07:43Z</time></trkpt><trkpt lat="43.294041895770846" lon="10.498172980347272"><ele>1.1428571428571428</ele><time>2026-04-06T06:07:47Z</time></trkpt><trkpt lat="43.29408717603094" lon="10.498109741010975"><ele>1.2857142857142856</ele><time>2026-04-06T06:07:51Z</time></trkpt><trkpt lat="43.29414923251991" lon="10.498046043698478"><ele>1.4285714285714284</ele><time>2026-04-06T06:07:56Z</time></trkpt><trkpt lat="43.294205532996415" lon="10.49798892855425"><ele>1.5714285714285714</ele><time>2026-04-06T06:08:01Z</time></trkpt><trkpt lat="43.29425913722772" lon="10.497932403000092"><ele>1.714285714285714</ele><time>2026-04-06T06:08:06Z</time></trkpt><trkpt lat="43.294316018502094" lon="10.497887222533576"><ele>1.857142857142857</ele><time>2026-04-06T06:08:10Z</time></trkpt><trkpt lat="43.294363048018035" lon="10.49781611765659"><ele>2.0</ele><time>2026-04-06T06:08:15Z</time></trkpt><trkpt lat="43.29443395575712" lon="10.497771420628869"><ele>2.0</ele><time>2026-04-06T06:08:23Z</time></trkpt><trkpt lat="43.29448843657543" lon="10.49771334186912"><ele>1.9999999999999998</ele><time>2026-04-06T06:08:27Z</time></trkpt><trkpt lat="43.29454853999996" lon="10.497660153457899"><ele>2.0</ele><time>2026-04-06T06:08:31Z</time></trkpt><trkpt lat="43.29460617184999" lon="10.497607896887597"><ele>2.0</ele><time>2026-04-06T06:08:36Z</time></trkpt><trkpt lat="43.29466044764332" lon="10.49754989706573"><ele>1.9999999999999998</ele><time>2026-04-06T06:08:39Z</time></trkpt><trkpt lat="43.29472159027929" lon="10.497483404553375"><ele>2.0</ele><time>2026-04-06T06:08:43Z</time></trkpt><trkpt lat="43.29477905735863" lon="10.497420021162243"><ele>2.0</ele><time>2026-04-06T06:08:47Z</time></trkpt><trkpt lat="43.2948231641402" lon="10.497351843179016"><ele>2.2857142857142856</ele><time>2026-04-06T06:08:53Z</time></trkpt><trkpt lat="43.29489114659512" lon="10.497303925544639"><ele>2.571428571428571</ele><time>2026-04-06T06:08:58Z</time></trkpt><trkpt lat="43.29495323120264" lon="10.497244098298655"><ele>2.8571428571428568</ele><time>2026-04-06T06:09:03Z</time></trkpt><trkpt lat="43.295028079017214" lon="10.497197698322445"><ele>3.142857142857143</ele><time>2026-04-06T06:09:08Z</time></trkpt><trkpt lat="43.29508998686869" lon="10.497151500561927"><ele>3.428571428571428</ele><time>2026-04-06T06:09:12Z</time></trkpt><trkpt lat="43.29514255445325" lon="10.497093477577607"><ele>3.714285714285714</ele><time>2026-04-06T06:09:17Z</time></trkpt><trkpt lat="43.29519851475931" lon="10.49703452628298"><ele>4.0</ele><time>2026-04-06T06:09:22Z</time></trkpt><trkpt lat="43.295258368053254" lon="10.49697133969675"><ele>3.8571428571428568</ele><time>2026-04-06T06:09:28Z</time></trkpt><trkpt lat="43.29531992121777" lon="10.496932245502483"><ele>3.714285714285714</ele><time>2026-04-06T06:09:32Z</time></trkpt><trkpt lat="43.29538653694949" lon="10.496872930629076"><ele>3.571428571428571</ele><time>2026-04-06T06:09:37Z</time></trkpt><trkpt lat="43.29544162833241" lon="10.496819588236058"><ele>3.4285714285714284</ele><time>2026-04-06T06:09:41Z</time></trkpt><trkpt lat="43.29549727752887" lon="10.496765389046166"><ele>3.2857142857142856</ele><time>2026-04-06T06:09:47Z</time></trkpt><trkpt lat="43.295551386890665" lon="10.496710813236387"><ele>3.1428571428571423</ele><time>2026-04-06T06:09:53Z</time></trkpt><trkpt lat="43.29559102832109" lon="10.496643615336598"><ele>3.0</ele><time>2026-04-06T06:09:59Z</time></trkpt><trkpt lat="43.29565741315026" lon="10.496589174215478"><ele>2.9999999999999996</ele><time>2026-04-06T06:10:03Z</time></trkpt><trkpt lat="43.295724101539015" lon="10.496524416743252"><ele>3.0</ele><time>2026-04-06T06:10:07Z</time></trkpt><trkpt lat="43.295785177425024" lon="10.496470000419174"><ele>3.0</ele><time>2026-04-06T06:10:11Z</time></trkpt><trkpt lat="43.29583751033388" lon="10.496419199595048"><ele>3.0</ele><time>2026-04-06T06:10:15Z</time></trkpt><trkpt lat="43.29588634587232" lon="10.496363070278443"><ele>3.0</ele><time>2026-04-06T06:10:19Z</time></trkpt><trkpt lat="43.29594041469416" lon="10.496317332086313"><ele>2.9999999999999996</ele><time>2026-04-06T06:10:24Z</time></trkpt><trkpt lat="43.29599722151087" lon="10.496259890960724"><ele>3.0</ele><time>2026-04-06T06:10:29Z</time></trkpt><trkpt lat="43.2960546209429" lon="10.49619772414818"><ele>2.8571428571428568</ele><time>2026-04-06T06:10:34Z</time></trkpt><trkpt lat="43.29610670449062" lon="10.49613824720844"><ele>2.7142857142857144</ele><time>2026-04-06T06:10:39Z</time></trkpt><trkpt lat="43.296170579609395" lon="10.49608847649149"><ele>2.571428571428571</ele><time>2026-04-06T06:10:45Z</time></trkpt><trkpt lat="43.29622667079378" lon="10.496028845224458"><ele>2.4285714285714284</ele><time>2026-04-06T06:10:50Z</time></trkpt><trkpt lat="43.29627576143664" lon="10.495966742964564"><ele>2.2857142857142856</ele><time>2026-04-06T06:10:55Z</time></trkpt><trkpt lat="43.296322084556394" lon="10.495906995977025"><ele>2.142857142857143</ele><time>2026-04-06T06:11:00Z</time></trkpt><trkpt lat="43.29637315345761" lon="10.495854410282288"><ele>2.0</ele><time>2026-04-06T06:11:04Z</time></trkpt><trkpt lat="43.296425323232945" lon="10.495786702125246"><ele>2.2857142857142856</ele><time>2026-04-06T06:11:09Z</time></trkpt><trkpt lat="43.296464708095534" lon="10.495706887176748"><ele>2.571428571428571</ele><time>2026-04-06T06:11:16Z</time></trkpt><trkpt lat="43.29649469823104" lon="10.495630542665369"><ele>2.8571428571428568</ele><time>2026-04-06T06:11:22Z</time></trkpt><trkpt lat="43.29653888242705" lon="10.495556921210351"><ele>3.142857142857143</ele><time>2026-04-06T06:11:26Z</time></trkpt><trkpt lat="43.29657982581611" lon="10.495472940409746"><ele>3.428571428571428</ele><time>2026-04-06T06:11:32Z</time></trkpt><trkpt lat="43.296638109298534" lon="10.495400259976371"><ele>3.714285714285714</ele><time>2026-04-06T06:11:37Z</time></trkpt><trkpt lat="43.296697661330505" lon="10.495341322149322"><ele>4.0</ele><time>2026-04-06T06:11:41Z</time></trkpt><trkpt lat="43.29675010767868" lon="10.495257886382264"><ele>4.142857142857142</ele><time>2026-04-06T06:11:47Z</time></trkpt><trkpt lat="43.296810965390826" lon="10.495192995227441"><ele>4.285714285714286</ele><time>2026-04-06T06:11:51Z</time></trkpt><trkpt lat="43.2968647127911" lon="10.495133299301887"><ele>4.428571428571429</ele><time>2026-04-06T06:11:55Z</time></trkpt><trkpt lat="43.29693328787366" lon="10.49508572630545"><ele>4.571428571428571</ele><time>2026-04-06T06:11:59Z</time></trkpt><trkpt lat="43.29700531881453" lon="10.49504422317668"><ele>4.714285714285714</ele><time>2026-04-06T06:12:04Z</time></trkpt><trkpt lat="43.29706345092995" lon="10.494972610619799"><ele>4.857142857142857</ele><time>2026-04-06T06:12:09Z</time></trkpt><trkpt lat="43.29710627110768" lon="10.494906754558157"><ele>5.0</ele><time>2026-04-06T06:12:13Z</time></trkpt><trkpt lat="43.2971540282661" lon="10.49482463155265"><ele>5.0</ele><time>2026-04-06T06:12:18Z</time></trkpt><trkpt lat="43.29718650079351" lon="10.49474252469197"><ele>5.0</ele><time>2026-04-06T06:12:25Z</time></trkpt><trkpt lat="43.29720338482817" lon="10.494648982385701"><ele>5.0</ele><time>2026-04-06T06:12:38Z</time></trkpt><trkpt lat="43.29722109463179" lon="10.494546455006809"><ele>5.0</ele><time>2026-04-06T06:12:45Z</time></trkpt><trkpt lat="43.29727479499393" lon="10.494490001380706"><ele>5.0</ele><time>2026-04-06T06:12:50Z</time></trkpt><trkpt lat="43.29735392569792" lon="10.494453998580978"><ele>5.0</ele><time>2026-04-06T06:12:54Z</time></trkpt><trkpt lat="43.29741108260337" lon="10.49439694012659"><ele>5.0</ele><time>2026-04-06T06:12:56Z</time></trkpt><trkpt lat="43.29747474022249" lon="10.494326676503075"><ele>4.714285714285714</ele><time>2026-04-06T06:12:59Z</time></trkpt><trkpt lat="43.29754538814327" lon="10.494273902669597"><ele>4.428571428571429</ele><time>2026-04-06T06:13:02Z</time></trkpt><trkpt lat="43.29759579323358" lon="10.494205653692985"><ele>4.142857142857142</ele><time>2026-04-06T06:13:06Z</time></trkpt><trkpt lat="43.29765186027506" lon="10.494143247140016"><ele>3.8571428571428568</ele><time>2026-04-06T06:13:12Z</time></trkpt><trkpt lat="43.29772207161628" lon="10.494087001275226"><ele>3.571428571428571</ele><time>2026-04-06T06:13:15Z</time></trkpt><trkpt lat="43.297789198717425" lon="10.494034090233063"><ele>3.2857142857142856</ele><time>2026-04-06T06:13:19Z</time></trkpt><trkpt lat="43.297839423183675" lon="10.493974168412635"><ele>3.0</ele><time>2026-04-06T06:13:23Z</time></trkpt><trkpt lat="43.29788380791981" lon="10.493910747534445"><ele>2.9999999999999996</ele><time>2026-04-06T06:13:27Z</time></trkpt><trkpt lat="43.29794674151967" lon="10.493846076786703"><ele>3.0</ele><time>2026-04-06T06:13:32Z</time></trkpt><trkpt lat="43.29800454962393" lon="10.493780519987185"><ele>3.0</ele><time>2026-04-06T06:13:37Z</time></trkpt><trkpt lat="43.29805566092673" lon="10.493729659369633"><ele>3.0</ele><time>2026-04-06T06:13:41Z</time></trkpt><trkpt lat="43.29811566610296" lon="10.493664616863562"><ele>3.0</ele><time>2026-04-06T06:13:46Z</time></trkpt><trkpt lat="43.29815323055411" lon="10.493593682013525"><ele>2.9999999999999996</ele><time>2026-04-06T06:13:50Z</time></trkpt><trkpt lat="43.29820292841489" lon="10.49351395823571"><ele>3.0</ele><time>2026-04-06T06:13:55Z</time></trkpt><trkpt lat="43.29823661057113" lon="10.49343226198624"><ele>2.9999999999999996</ele><time>2026-04-06T06:14:00Z</time></trkpt><trkpt lat="43.29828286873634" lon="10.49336063463354"><ele>3.0</ele><time>2026-04-06T06:14:06Z</time></trkpt><trkpt lat="43.29834946909769" lon="10.493314625315499"><ele>3.0</ele><time>2026-04-06T06:14:11Z</time></trkpt><trkpt lat="43.29838997198046" lon="10.493239244168105"><ele>3.0</ele><time>2026-04-06T06:14:15Z</time></trkpt><trkpt lat="43.298441798582395" lon="10.493183685477366"><ele>3.0</ele><time>2026-04-06T06:14:20Z</time></trkpt><trkpt lat="43.298487271269956" lon="10.49311655480883"><ele>2.9999999999999996</ele><time>2026-04-06T06:14:27Z</time></trkpt><trkpt lat="43.2985442583695" lon="10.49305701564669"><ele>3.0</ele><time>2026-04-06T06:14:32Z</time></trkpt><trkpt lat="43.29858768527394" lon="10.492984953444413"><ele>2.9999999999999996</ele><time>2026-04-06T06:14:38Z</time></trkpt><trkpt lat="43.29864354398031" lon="10.492921804709397"><ele>3.0</ele><time>2026-04-06T06:14:43Z</time></trkpt><trkpt lat="43.29868701218261" lon="10.492835440344852"><ele>3.0</ele><time>2026-04-06T06:14:47Z</time></trkpt><trkpt lat="43.29873187280743" lon="10.492753246997072"><ele>3.0</ele><time>2026-04-06T06:14:51Z</time></trkpt><trkpt lat="43.2987786241158" lon="10.492678346732658"><ele>3.0</ele><time>2026-04-06T06:14:56Z</time></trkpt><trkpt lat="43.298848513185916" lon="10.492645921155514"><ele>2.9999999999999996</ele><time>2026-04-06T06:15:01Z</time></trkpt><trkpt lat="43.29890998605361" lon="10.492598514942426"><ele>3.0</ele><time>2026-04-06T06:15:06Z</time></trkpt><trkpt lat="43.29896610040162" lon="10.492557785244172"><ele>2.9999999999999996</ele><time>2026-04-06T06:15:10Z</time></trkpt><trkpt lat="43.29901560812641" lon="10.492490617531386"><ele>3.0</ele><time>2026-04-06T06:15:14Z</time></trkpt><trkpt lat="43.29906332645929" lon="10.49241832825156"><ele>3.0</ele><time>2026-04-06T06:15:19Z</time></trkpt><trkpt lat="43.299103315142695" lon="10.492339944015214"><ele>3.0</ele><time>2026-04-06T06:15:26Z</time></trkpt><trkpt lat="43.29917703904484" lon="10.492329012566113"><ele>3.0</ele><time>2026-04-06T06:15:29Z</time></trkpt><trkpt lat="43.29922642293768" lon="10.49226668777724"><ele>2.9999999999999996</ele><time>2026-04-06T06:15:34Z</time></trkpt><trkpt lat="43.29926448898211" lon="10.492174810734417"><ele>3.0</ele><time>2026-04-06T06:15:40Z</time></trkpt><trkpt lat="43.299315161752155" lon="10.492101041504426"><ele>2.714285714285714</ele><time>2026-04-06T06:15:44Z</time></trkpt><trkpt lat="43.299356662241344" lon="10.492017367661518"><ele>2.4285714285714284</ele><time>2026-04-06T06:15:49Z</time></trkpt><trkpt lat="43.29940866915436" lon="10.491956012472173"><ele>2.142857142857143</ele><time>2026-04-06T06:15:53Z</time></trkpt><trkpt lat="43.29944325068208" lon="10.491883143168051"><ele>1.857142857142857</ele><time>2026-04-06T06:16:00Z</time></trkpt><trkpt lat="43.299475487671224" lon="10.491806935027748"><ele>1.5714285714285712</ele><time>2026-04-06T06:16:05Z</time></trkpt><trkpt lat="43.299557251344744" lon="10.491789905698043"><ele>1.2857142857142856</ele><time>2026-04-06T06:16:11Z</time></trkpt><trkpt lat="43.29961971070155" lon="10.491729651850669"><ele>1.0</ele><time>2026-04-06T06:16:16Z</time></trkpt><trkpt lat="43.29964163149007" lon="10.491634841460089"><ele>1.0</ele><time>2026-04-06T06:16:21Z</time></trkpt><trkpt lat="43.29966950426518" lon="10.491550620510411"><ele>0.9999999999999999</ele><time>2026-04-06T06:16:26Z</time></trkpt><trkpt lat="43.29972323991225" lon="10.491488053664261"><ele>1.0</ele><time>2026-04-06T06:16:31Z</time></trkpt><trkpt lat="43.29977733188267" lon="10.49141252713019"><ele>1.0</ele><time>2026-04-06T06:16:37Z</time></trkpt><trkpt lat="43.29981043531553" lon="10.491331560642674"><ele>0.9999999999999999</ele><time>2026-04-06T06:16:42Z</time></trkpt><trkpt lat="43.29983544084118" lon="10.491245119968106"><ele>1.0</ele><time>2026-04-06T06:16:47Z</time></trkpt><trkpt lat="43.29989072591742" lon="10.4911979824916"><ele>1.0</ele><time>2026-04-06T06:16:50Z</time></trkpt><trkpt lat="43.29996067386612" lon="10.491126606315081"><ele>1.1428571428571428</ele><time>2026-04-06T06:16:54Z</time></trkpt><trkpt lat="43.300034859806985" lon="10.491091493434583"><ele>1.2857142857142856</ele><time>2026-04-06T06:16:57Z</time></trkpt><trkpt lat="43.30010459840052" lon="10.49106791772008"><ele>1.4285714285714284</ele><time>2026-04-06T06:16:59Z</time></trkpt><trkpt lat="43.30019073528061" lon="10.49105719756724"><ele>1.5714285714285714</ele><time>2026-04-06T06:17:02Z</time></trkpt><trkpt lat="43.300258486192384" lon="10.491064744942264"><ele>1.714285714285714</ele><time>2026-04-06T06:17:07Z</time></trkpt><trkpt lat="43.30032640563542" lon="10.49109504811993"><ele>1.857142857142857</ele><time>2026-04-06T06:17:12Z</time></trkpt><trkpt lat="43.30038443156586" lon="10.491145796213743"><ele>2.0</ele><time>2026-04-06T06:17:17Z</time></trkpt><trkpt lat="43.30043277944388" lon="10.491217544118497"><ele>2.0</ele><time>2026-04-06T06:17:22Z</time></trkpt><trkpt lat="43.30050036295146" lon="10.491229897145802"><ele>1.9999999999999998</ele><time>2026-04-06T06:17:27Z</time></trkpt><trkpt lat="43.300580992983484" lon="10.491241122319568"><ele>2.0</ele><time>2026-04-06T06:17:31Z</time></trkpt><trkpt lat="43.300658681346825" lon="10.491258884391339"><ele>2.0</ele><time>2026-04-06T06:17:35Z</time></trkpt><trkpt lat="43.30073538792422" lon="10.491247273863328"><ele>1.9999999999999998</ele><time>2026-04-06T06:17:39Z</time></trkpt><trkpt lat="43.300807793135235" lon="10.491227724854264"><ele>2.0</ele><time>2026-04-06T06:17:44Z</time></trkpt><trkpt lat="43.300871650243515" lon="10.491201802938864"><ele>2.0</ele><time>2026-04-06T06:17:49Z</time></trkpt><trkpt lat="43.300926540577585" lon="10.491158786720277"><ele>2.142857142857143</ele><time>2026-04-06T06:17:53Z</time></trkpt><trkpt lat="43.30098575461454" lon="10.491123171450193"><ele>2.2857142857142856</ele><time>2026-04-06T06:17:58Z</time></trkpt><trkpt lat="43.30104188820093" lon="10.49116755915665"><ele>2.4285714285714284</ele><time>2026-04-06T06:18:02Z</time></trkpt><trkpt lat="43.301093937073254" lon="10.491232209494452"><ele>2.571428571428571</ele><time>2026-04-06T06:18:06Z</time></trkpt><trkpt lat="43.30115615345047" lon="10.491293763648558"><ele>2.7142857142857144</ele><time>2026-04-06T06:18:11Z</time></trkpt><trkpt lat="43.301211936269155" lon="10.491367896705528"><ele>2.8571428571428568</ele><time>2026-04-06T06:18:16Z</time></trkpt><trkpt lat="43.30126244924747" lon="10.491431966467832"><ele>3.0</ele><time>2026-04-06T06:18:21Z</time></trkpt><trkpt lat="43.30130996675281" lon="10.49149391804778"><ele>2.9999999999999996</ele><time>2026-04-06T06:18:26Z</time></trkpt><trkpt lat="43.301372564205714" lon="10.49154005160917"><ele>3.0</ele><time>2026-04-06T06:18:32Z</time></trkpt><trkpt lat="43.30141534585926" lon="10.491619083818774"><ele>3.0</ele><time>2026-04-06T06:18:37Z</time></trkpt><trkpt lat="43.30145358177016" lon="10.491688385307656"><ele>3.0</ele><time>2026-04-06T06:18:42Z</time></trkpt><trkpt lat="43.30148018439465" lon="10.491778553657214"><ele>3.0</ele><time>2026-04-06T06:18:45Z</time></trkpt><trkpt lat="43.30152143489328" lon="10.491844289311501"><ele>2.9999999999999996</ele><time>2026-04-06T06:18:49Z</time></trkpt><trkpt lat="43.30157834210477" lon="10.491908932728595"><ele>3.0</ele><time>2026-04-06T06:18:54Z</time></trkpt><trkpt lat="43.3016369747445" lon="10.49196771377714"><ele>2.9999999999999996</ele><time>2026-04-06T06:18:59Z</time></trkpt><trkpt lat="43.3016806039886" lon="10.492034885790856"><ele>3.0</ele><time>2026-04-06T06:19:03Z</time></trkpt><trkpt lat="43.301725370766015" lon="10.492111949611052"><ele>3.0</ele><time>2026-04-06T06:19:07Z</time></trkpt><trkpt lat="43.30175616170748" lon="10.492204552638604"><ele>3.0</ele><time>2026-04-06T06:19:12Z</time></trkpt><trkpt lat="43.30175986147343" lon="10.492307058733953"><ele>3.0</ele><time>2026-04-06T06:19:16Z</time></trkpt><trkpt lat="43.30179919609346" lon="10.492391619914603"><ele>2.9999999999999996</ele><time>2026-04-06T06:19:21Z</time></trkpt><trkpt lat="43.30186070209072" lon="10.492440509263242"><ele>3.0</ele><time>2026-04-06T06:19:27Z</time></trkpt><trkpt lat="43.30189593472366" lon="10.492516955349345"><ele>3.0</ele><time>2026-04-06T06:19:34Z</time></trkpt><trkpt lat="43.30192826181709" lon="10.49261540701392"><ele>3.0</ele><time>2026-04-06T06:19:39Z</time></trkpt><trkpt lat="43.30197627146844" lon="10.49269500495357"><ele>3.0</ele><time>2026-04-06T06:19:45Z</time></trkpt><trkpt lat="43.30202831301705" lon="10.492755358849966"><ele>3.0</ele><time>2026-04-06T06:19:49Z</time></trkpt><trkpt lat="43.30207735301475" lon="10.492827785299884"><ele>3.0</ele><time>2026-04-06T06:19:53Z</time></trkpt><trkpt lat="43.30213168505116" lon="10.492905461265577"><ele>3.0</ele><time>2026-04-06T06:19:57Z</time></trkpt><trkpt lat="43.30216532587846" lon="10.49300114846839"><ele>2.8571428571428568</ele><time>2026-04-06T06:20:01Z</time></trkpt><trkpt lat="43.30219938035698" lon="10.493083388672936"><ele>2.7142857142857144</ele><time>2026-04-06T06:20:05Z</time></trkpt><trkpt lat="43.302242416250486" lon="10.493147519282363"><ele>2.571428571428571</ele><time>2026-04-06T06:20:10Z</time></trkpt><trkpt lat="43.30227924450018" lon="10.493222379336181"><ele>2.4285714285714284</ele><time>2026-04-06T06:20:15Z</time></trkpt><trkpt lat="43.30231712688387" lon="10.493308143270548"><ele>2.2857142857142856</ele><time>2026-04-06T06:20:20Z</time></trkpt><trkpt lat="43.302336466110724" lon="10.493408667811858"><ele>2.142857142857143</ele><time>2026-04-06T06:20:24Z</time></trkpt><trkpt lat="43.30235753148184" lon="10.493496293404101"><ele>2.0</ele><time>2026-04-06T06:20:28Z</time></trkpt><trkpt lat="43.302387593743994" lon="10.493593976143124"><ele>2.0</ele><time>2026-04-06T06:20:33Z</time></trkpt><trkpt lat="43.302416329959335" lon="10.493691450949354"><ele>1.9999999999999998</ele><time>2026-04-06T06:20:38Z</time></trkpt><trkpt lat="43.3024665408461" lon="10.493751168967783"><ele>2.0</ele><time>2026-04-06T06:20:43Z</time></trkpt><trkpt lat="43.30250553912481" lon="10.49382378723464"><ele>2.0</ele><time>2026-04-06T06:20:48Z</time></trkpt><trkpt lat="43.30254555876902" lon="10.49391915368896"><ele>1.9999999999999998</ele><time>2026-04-06T06:20:53Z</time></trkpt><trkpt lat="43.30259542422071" lon="10.493996500186894"><ele>2.0</ele><time>2026-04-06T06:20:59Z</time></trkpt><trkpt lat="43.30263565959313" lon="10.4940749044438"><ele>2.0</ele><time>2026-04-06T06:21:04Z</time></trkpt><trkpt lat="43.302633619770404" lon="10.494183472112825"><ele>2.0</ele><time>2026-04-06T06:21:10Z</time></trkpt><trkpt lat="43.302614682096745" lon="10.494266893337166"><ele>1.9999999999999998</ele><time>2026-04-06T06:21:16Z</time></trkpt><trkpt lat="43.30256133185063" lon="10.494319992717479"><ele>2.0</ele><time>2026-04-06T06:21:22Z</time></trkpt><trkpt lat="43.30256644848642" lon="10.494414137506208"><ele>2.0</ele><time>2026-04-06T06:21:32Z</time></trkpt><trkpt lat="43.302536924952705" lon="10.49450987293608"><ele>1.9999999999999998</ele><time>2026-04-06T06:21:40Z</time></trkpt><trkpt lat="43.30247994584882" lon="10.494555466241959"><ele>2.0</ele><time>2026-04-06T06:21:43Z</time></trkpt><trkpt lat="43.30241515412703" lon="10.494607781338129"><ele>2.0</ele><time>2026-04-06T06:21:46Z</time></trkpt><trkpt lat="43.30234611835247" lon="10.494660567956712"><ele>2.0</ele><time>2026-04-06T06:21:50Z</time></trkpt><trkpt lat="43.302298599305324" lon="10.494745173019016"><ele>1.9999999999999998</ele><time>2026-04-06T06:21:54Z</time></trkpt><trkpt lat="43.302258804507815" lon="10.494822931604823"><ele>2.0</ele><time>2026-04-06T06:21:58Z</time></trkpt><trkpt lat="43.30221128783613" lon="10.494900494131455"><ele>2.0</ele><time>2026-04-06T06:22:03Z</time></trkpt><trkpt lat="43.30216914009967" lon="10.494979194521337"><ele>1.9999999999999998</ele><time>2026-04-06T06:22:09Z</time></trkpt><trkpt lat="43.30211904351891" lon="10.495045032548685"><ele>2.0</ele><time>2026-04-06T06:22:13Z</time></trkpt><trkpt lat="43.30206978035592" lon="10.495107340723493"><ele>2.0</ele><time>2026-04-06T06:22:17Z</time></trkpt><trkpt lat="43.30202096333225" lon="10.495188282519162"><ele>2.0</ele><time>2026-04-06T06:22:22Z</time></trkpt><trkpt lat="43.30198623548575" lon="10.495260742382445"><ele>1.9999999999999998</ele><time>2026-04-06T06:22:27Z</time></trkpt><trkpt lat="43.30195467813047" lon="10.495344525807122"><ele>2.0</ele><time>2026-04-06T06:22:32Z</time></trkpt><trkpt lat="43.3018834843271" lon="10.495387268247459"><ele>2.0</ele><time>2026-04-06T06:22:38Z</time></trkpt><trkpt lat="43.30182277445682" lon="10.49546304657935"><ele>1.9999999999999998</ele><time>2026-04-06T06:22:42Z</time></trkpt><trkpt lat="43.30175560836985" lon="10.495497248401259"><ele>2.0</ele><time>2026-04-06T06:22:46Z</time></trkpt><trkpt lat="43.30169853972935" lon="10.495548675460753"><ele>2.0</ele><time>2026-04-06T06:22:50Z</time></trkpt><trkpt lat="43.301644382310776" lon="10.495604242657611"><ele>2.0</ele><time>2026-04-06T06:22:55Z</time></trkpt><trkpt lat="43.301601365664254" lon="10.495683111216625"><ele>1.9999999999999998</ele><time>2026-04-06T06:22:59Z</time></trkpt><trkpt lat="43.301552627310194" lon="10.49574642085873"><ele>2.0</ele><time>2026-04-06T06:23:05Z</time></trkpt><trkpt lat="43.30150023711791" lon="10.495795376389633"><ele>2.0</ele><time>2026-04-06T06:23:10Z</time></trkpt><trkpt lat="43.301440714762194" lon="10.495846833823355"><ele>1.9999999999999998</ele><time>2026-04-06T06:23:14Z</time></trkpt><trkpt lat="43.30138538186628" lon="10.495906012523621"><ele>2.0</ele><time>2026-04-06T06:23:19Z</time></trkpt><trkpt lat="43.30132892072067" lon="10.49596939477702"><ele>2.0</ele><time>2026-04-06T06:23:24Z</time></trkpt><trkpt lat="43.301292378753246" lon="10.496048475580084"><ele>2.0</ele><time>2026-04-06T06:23:28Z</time></trkpt><trkpt lat="43.30126207456041" lon="10.496132945098188"><ele>1.9999999999999998</ele><time>2026-04-06T06:23:33Z</time></trkpt><trkpt lat="43.30120353791665" lon="10.496202486545036"><ele>2.0</ele><time>2026-04-06T06:23:37Z</time></trkpt><trkpt lat="43.301148405084156" lon="10.49624964798385"><ele>2.0</ele><time>2026-04-06T06:23:41Z</time></trkpt><trkpt lat="43.301086646411946" lon="10.49629403325242"><ele>1.9999999999999998</ele><time>2026-04-06T06:23:45Z</time></trkpt><trkpt lat="43.301024547369614" lon="10.49633995831286"><ele>2.0</ele><time>2026-04-06T06:23:51Z</time></trkpt><trkpt lat="43.30096249655338" lon="10.496379116671571"><ele>2.0</ele><time>2026-04-06T06:23:56Z</time></trkpt><trkpt lat="43.30091376074267" lon="10.496450350510054"><ele>2.1666666666666665</ele><time>2026-04-06T06:23:59Z</time></trkpt><trkpt lat="43.30086814077348" lon="10.496535565346903"><ele>2.333333333333333</ele><time>2026-04-06T06:24:04Z</time></trkpt><trkpt lat="43.30090910038202" lon="10.496618710234413"><ele>2.5</ele><time>2026-04-06T06:24:13Z</time></trkpt><trkpt lat="43.30095814608894" lon="10.496722299796913"><ele>2.6666666666666665</ele><time>2026-04-06T06:24:16Z</time></trkpt><trkpt lat="43.30100631851988" lon="10.496806825408795"><ele>2.8333333333333335</ele><time>2026-04-06T06:24:18Z</time></trkpt><trkpt lat="43.30103994499114" lon="10.496890753510758"><ele>3.0</ele><time>2026-04-06T06:24:20Z</time></trkpt><trkpt lat="43.30111002114593" lon="10.496886976489344"><ele>2.9999999999999996</ele><time>2026-04-06T06:24:27Z</time></trkpt><trkpt lat="43.301161217320335" lon="10.496949102700796"><ele>3.0</ele><time>2026-04-06T06:24:31Z</time></trkpt><trkpt lat="43.30120783804023" lon="10.497024621113137"><ele>3.0</ele><time>2026-04-06T06:24:35Z</time></trkpt><trkpt lat="43.301247746081714" lon="10.497102253999206"><ele>3.0</ele><time>2026-04-06T06:24:40Z</time></trkpt><trkpt lat="43.30127558360114" lon="10.49720932453981"><ele>3.0</ele><time>2026-04-06T06:24:44Z</time></trkpt><trkpt lat="43.301322662658954" lon="10.49728299539539"><ele>2.9999999999999996</ele><time>2026-04-06T06:24:48Z</time></trkpt><trkpt lat="43.30133910116634" lon="10.497375759086644"><ele>3.0</ele><time>2026-04-06T06:24:52Z</time></trkpt><trkpt lat="43.30136057702868" lon="10.497474370049893"><ele>2.9999999999999996</ele><time>2026-04-06T06:24:57Z</time></trkpt><trkpt lat="43.30139878439288" lon="10.497553059075958"><ele>3.0</ele><time>2026-04-06T06:25:01Z</time></trkpt><trkpt lat="43.30143425419766" lon="10.497646604742515"><ele>3.0</ele><time>2026-04-06T06:25:06Z</time></trkpt><trkpt lat="43.30147393189227" lon="10.497732843245846"><ele>3.0</ele><time>2026-04-06T06:25:11Z</time></trkpt><trkpt lat="43.30153839291539" lon="10.497806112646648"><ele>3.0</ele><time>2026-04-06T06:25:15Z</time></trkpt><trkpt lat="43.301591796646505" lon="10.497871462336905"><ele>2.9999999999999996</ele><time>2026-04-06T06:25:19Z</time></trkpt><trkpt lat="43.30163361750138" lon="10.497954010512709"><ele>3.0</ele><time>2026-04-06T06:25:24Z</time></trkpt><trkpt lat="43.30167311616753" lon="10.498024095560803"><ele>3.1428571428571423</ele><time>2026-04-06T06:25:29Z</time></trkpt><trkpt lat="43.30172929617264" lon="10.498088296494982"><ele>3.2857142857142856</ele><time>2026-04-06T06:25:34Z</time></trkpt><trkpt lat="43.30176372794977" lon="10.49816231902057"><ele>3.4285714285714284</ele><time>2026-04-06T06:25:38Z</time></trkpt><trkpt lat="43.301799840799845" lon="10.498251367081705"><ele>3.571428571428571</ele><time>2026-04-06T06:25:45Z</time></trkpt><trkpt lat="43.301832491918596" lon="10.49833738891995"><ele>3.714285714285714</ele><time>2026-04-06T06:25:52Z</time></trkpt><trkpt lat="43.30187015288106" lon="10.49842429981704"><ele>3.8571428571428568</ele><time>2026-04-06T06:25:56Z</time></trkpt><trkpt lat="43.30191159547004" lon="10.49850345648727"><ele>4.0</ele><time>2026-04-06T06:26:00Z</time></trkpt><trkpt lat="43.30193965318546" lon="10.498595078044731"><ele>4.0</ele><time>2026-04-06T06:26:04Z</time></trkpt><trkpt lat="43.30197361638525" lon="10.498689675257927"><ele>3.9999999999999996</ele><time>2026-04-06T06:26:10Z</time></trkpt><trkpt lat="43.30198748910391" lon="10.498794228987238"><ele>4.0</ele><time>2026-04-06T06:26:15Z</time></trkpt><trkpt lat="43.302012010288024" lon="10.498879437727805"><ele>4.0</ele><time>2026-04-06T06:26:19Z</time></trkpt><trkpt lat="43.30204545646428" lon="10.498960821317647"><ele>3.9999999999999996</ele><time>2026-04-06T06:26:22Z</time></trkpt><trkpt lat="43.30209294212302" lon="10.499036103426052"><ele>4.0</ele><time>2026-04-06T06:26:26Z</time></trkpt><trkpt lat="43.30215235973929" lon="10.499094038928027"><ele>4.0</ele><time>2026-04-06T06:26:32Z</time></trkpt><trkpt lat="43.30222110852155" lon="10.499163446676155"><ele>4.0</ele><time>2026-04-06T06:26:37Z</time></trkpt><trkpt lat="43.30225112600479" lon="10.499249112637541"><ele>3.9999999999999996</ele><time>2026-04-06T06:26:40Z</time></trkpt><trkpt lat="43.30228909974868" lon="10.499333145809393"><ele>4.0</ele><time>2026-04-06T06:26:44Z</time></trkpt><trkpt lat="43.30231875558487" lon="10.49940999612317"><ele>4.0</ele><time>2026-04-06T06:26:49Z</time></trkpt><trkpt lat="43.30236714836395" lon="10.499490530565598"><ele>3.9999999999999996</ele><time>2026-04-06T06:26:56Z</time></trkpt><trkpt lat="43.30240945888177" lon="10.499566430729901"><ele>4.0</ele><time>2026-04-06T06:27:03Z</time></trkpt><trkpt lat="43.302455419436946" lon="10.4996400222157"><ele>4.0</ele><time>2026-04-06T06:27:07Z</time></trkpt><trkpt lat="43.3025001157228" lon="10.499726667846803"><ele>4.0</ele><time>2026-04-06T06:27:11Z</time></trkpt><trkpt lat="43.302529807962" lon="10.499812533569584"><ele>3.9999999999999996</ele><time>2026-04-06T06:27:14Z</time></trkpt><trkpt lat="43.30256669225607" lon="10.499905077604268"><ele>4.0</ele><time>2026-04-06T06:27:18Z</time></trkpt><trkpt lat="43.30260630075318" lon="10.499981178101656"><ele>4.0</ele><time>2026-04-06T06:27:23Z</time></trkpt><trkpt lat="43.30266111307348" lon="10.50003889042574"><ele>3.9999999999999996</ele><time>2026-04-06T06:27:29Z</time></trkpt><trkpt lat="43.3026927316301" lon="10.500121733464946"><ele>4.0</ele><time>2026-04-06T06:27:33Z</time></trkpt><trkpt lat="43.302738434624864" lon="10.500218619595174"><ele>4.0</ele><time>2026-04-06T06:27:38Z</time></trkpt><trkpt lat="43.3027575227131" lon="10.500301964465523"><ele>3.9999999999999996</ele><time>2026-04-06T06:27:43Z</time></trkpt><trkpt lat="43.30279104823816" lon="10.500384386711822"><ele>4.0</ele><time>2026-04-06T06:27:47Z</time></trkpt><trkpt lat="43.302810673632095" lon="10.500472184393177"><ele>4.0</ele><time>2026-04-06T06:27:51Z</time></trkpt><trkpt lat="43.30278124621133" lon="10.500566294228578"><ele>4.0</ele><time>2026-04-06T06:27:55Z</time></trkpt><trkpt lat="43.302735365979856" lon="10.500631635892585"><ele>3.9999999999999996</ele><time>2026-04-06T06:28:02Z</time></trkpt><trkpt lat="43.30268496564136" lon="10.500708962845499"><ele>4.0</ele><time>2026-04-06T06:28:07Z</time></trkpt><trkpt lat="43.30273969713766" lon="10.50083974798406"><ele>4.0</ele><time>2026-04-06T06:28:21Z</time></trkpt><trkpt lat="43.302780353622445" lon="10.500928054351332"><ele>3.9999999999999996</ele><time>2026-04-06T06:28:26Z</time></trkpt><trkpt lat="43.30282044099686" lon="10.50099907488464"><ele>4.0</ele><time>2026-04-06T06:28:29Z</time></trkpt><trkpt lat="43.30287245833023" lon="10.501083685479019"><ele>4.0</ele><time>2026-04-06T06:28:33Z</time></trkpt><trkpt lat="43.302920725184585" lon="10.501187755110097"><ele>3.9999999999999996</ele><time>2026-04-06T06:28:37Z</time></trkpt><trkpt lat="43.30295074645303" lon="10.50126803577111"><ele>4.0</ele><time>2026-04-06T06:28:40Z</time></trkpt><trkpt lat="43.30298549922089" lon="10.501343697518056"><ele>4.0</ele><time>2026-04-06T06:28:46Z</time></trkpt><trkpt lat="43.30303320497347" lon="10.501441652866234"><ele>4.0</ele><time>2026-04-06T06:29:02Z</time></trkpt><trkpt lat="43.30307437050288" lon="10.501511981184487"><ele>3.9999999999999996</ele><time>2026-04-06T06:29:06Z</time></trkpt><trkpt lat="43.30310170306056" lon="10.501592282386161"><ele>4.0</ele><time>2026-04-06T06:29:08Z</time></trkpt><trkpt lat="43.30314295160761" lon="10.501686927759765"><ele>4.0</ele><time>2026-04-06T06:29:11Z</time></trkpt><trkpt lat="43.3031843350818" lon="10.501771656113144"><ele>3.9999999999999996</ele><time>2026-04-06T06:29:17Z</time></trkpt><trkpt lat="43.3032349016799" lon="10.501849980715026"><ele>4.0</ele><time>2026-04-06T06:29:22Z</time></trkpt><trkpt lat="43.303279018331544" lon="10.501913859368438"><ele>4.0</ele><time>2026-04-06T06:29:27Z</time></trkpt><trkpt lat="43.303317408427795" lon="10.501992065062735"><ele>3.8571428571428568</ele><time>2026-04-06T06:29:32Z</time></trkpt><trkpt lat="43.30336178752799" lon="10.502081912107647"><ele>3.714285714285714</ele><time>2026-04-06T06:29:38Z</time></trkpt><trkpt lat="43.30340301051696" lon="10.50215579775139"><ele>3.571428571428571</ele><time>2026-04-06T06:29:41Z</time></trkpt><trkpt lat="43.3034453857531" lon="10.502234118589714"><ele>3.4285714285714284</ele><time>2026-04-06T06:29:44Z</time></trkpt><trkpt lat="43.303491503456456" lon="10.502309593916516"><ele>3.2857142857142856</ele><time>2026-04-06T06:29:47Z</time></trkpt><trkpt lat="43.303511951928975" lon="10.50239185365577"><ele>3.1428571428571423</ele><time>2026-04-06T06:29:54Z</time></trkpt><trkpt lat="43.30352312085856" lon="10.502490633256775"><ele>3.0</ele><time>2026-04-06T06:30:00Z</time></trkpt><trkpt lat="43.303558267556696" lon="10.502574432835384"><ele>3.0</ele><time>2026-04-06T06:30:05Z</time></trkpt><trkpt lat="43.303608650428494" lon="10.502664193562785"><ele>3.0</ele><time>2026-04-06T06:30:09Z</time></trkpt><trkpt lat="43.30364440703263" lon="10.502747273077023"><ele>3.0</ele><time>2026-04-06T06:30:13Z</time></trkpt><trkpt lat="43.3036949733626" lon="10.502820537440769"><ele>3.0</ele><time>2026-04-06T06:30:17Z</time></trkpt><trkpt lat="43.30375206187821" lon="10.502892828092666"><ele>3.0</ele><time>2026-04-06T06:30:21Z</time></trkpt><trkpt lat="43.303785342653086" lon="10.502992847348496"><ele>3.0</ele><time>2026-04-06T06:30:26Z</time></trkpt><trkpt lat="43.303821883645334" lon="10.503067819333014"><ele>2.8571428571428568</ele><time>2026-04-06T06:30:31Z</time></trkpt><trkpt lat="43.30385609717542" lon="10.503154536884166"><ele>2.7142857142857144</ele><time>2026-04-06T06:30:37Z</time></trkpt><trkpt lat="43.30389738758663" lon="10.503243851025491"><ele>2.571428571428571</ele><time>2026-04-06T06:30:41Z</time></trkpt><trkpt lat="43.303938129648444" lon="10.50333311437428"><ele>2.4285714285714284</ele><time>2026-04-06T06:30:44Z</time></trkpt><trkpt lat="43.30397387068594" lon="10.503407036791302"><ele>2.2857142857142856</ele><time>2026-04-06T06:30:47Z</time></trkpt><trkpt lat="43.30402793827078" lon="10.503480291123221"><ele>2.142857142857143</ele><time>2026-04-06T06:30:51Z</time></trkpt><trkpt lat="43.30406418512585" lon="10.503552816026138"><ele>2.0</ele><time>2026-04-06T06:30:55Z</time></trkpt><trkpt lat="43.30408795934715" lon="10.503634637128531"><ele>2.2857142857142856</ele><time>2026-04-06T06:30:59Z</time></trkpt><trkpt lat="43.304103141464886" lon="10.503724067941107"><ele>2.571428571428571</ele><time>2026-04-06T06:31:03Z</time></trkpt><trkpt lat="43.304125281872885" lon="10.503822619290986"><ele>2.8571428571428568</ele><time>2026-04-06T06:31:13Z</time></trkpt><trkpt lat="43.304175494062385" lon="10.5039156863779"><ele>3.142857142857143</ele><time>2026-04-06T06:31:17Z</time></trkpt><trkpt lat="43.304213767969365" lon="10.504005966410718"><ele>3.428571428571428</ele><time>2026-04-06T06:31:21Z</time></trkpt><trkpt lat="43.30425542669863" lon="10.50407413875782"><ele>3.714285714285714</ele><time>2026-04-06T06:31:27Z</time></trkpt><trkpt lat="43.30429897934491" lon="10.504159957173359"><ele>4.0</ele><time>2026-04-06T06:31:32Z</time></trkpt><trkpt lat="43.30434686050953" lon="10.504248563321584"><ele>4.0</ele><time>2026-04-06T06:31:36Z</time></trkpt><trkpt lat="43.304383904759966" lon="10.5043238239782"><ele>3.9999999999999996</ele><time>2026-04-06T06:31:40Z</time></trkpt><trkpt lat="43.30440763242826" lon="10.504412045940622"><ele>4.0</ele><time>2026-04-06T06:31:45Z</time></trkpt><trkpt lat="43.30445863917426" lon="10.504480070002"><ele>4.0</ele><time>2026-04-06T06:31:52Z</time></trkpt><trkpt lat="43.30450753663292" lon="10.504558430430292"><ele>3.9999999999999996</ele><time>2026-04-06T06:31:56Z</time></trkpt><trkpt lat="43.30454348368183" lon="10.504639299761958"><ele>4.0</ele><time>2026-04-06T06:32:01Z</time></trkpt><trkpt lat="43.304596446360684" lon="10.504693282886052"><ele>4.0</ele><time>2026-04-06T06:32:06Z</time></trkpt><trkpt lat="43.30462847010729" lon="10.504775050990766"><ele>4.0</ele><time>2026-04-06T06:32:10Z</time></trkpt><trkpt lat="43.304644050000064" lon="10.504866068360162"><ele>3.9999999999999996</ele><time>2026-04-06T06:32:14Z</time></trkpt><trkpt lat="43.304701398026864" lon="10.504924520530539"><ele>4.0</ele><time>2026-04-06T06:32:21Z</time></trkpt><trkpt lat="43.30473370563787" lon="10.505005188840359"><ele>4.0</ele><time>2026-04-06T06:32:26Z</time></trkpt><trkpt lat="43.304779004478355" lon="10.505094462799242"><ele>3.9999999999999996</ele><time>2026-04-06T06:32:31Z</time></trkpt><trkpt lat="43.30480097364499" lon="10.505184786462598"><ele>4.0</ele><time>2026-04-06T06:32:36Z</time></trkpt><trkpt lat="43.304838019550736" lon="10.5052654584152"><ele>4.0</ele><time>2026-04-06T06:32:41Z</time></trkpt><trkpt lat="43.304886993464976" lon="10.505349260683941"><ele>4.0</ele><time>2026-04-06T06:32:45Z</time></trkpt><trkpt lat="43.304939243091134" lon="10.505417618153157"><ele>3.9999999999999996</ele><time>2026-04-06T06:32:50Z</time></trkpt><trkpt lat="43.304999549938486" lon="10.505471188421193"><ele>4.0</ele><time>2026-04-06T06:32:54Z</time></trkpt><trkpt lat="43.30502598014918" lon="10.505555093657792"><ele>4.0</ele><time>2026-04-06T06:32:58Z</time></trkpt><trkpt lat="43.30504988661458" lon="10.50565898166381"><ele>3.9999999999999996</ele><time>2026-04-06T06:33:01Z</time></trkpt><trkpt lat="43.3050884305183" lon="10.505745643371867"><ele>4.0</ele><time>2026-04-06T06:33:06Z</time></trkpt><trkpt lat="43.30512637410652" lon="10.505818771536058"><ele>4.0</ele><time>2026-04-06T06:33:12Z</time></trkpt><trkpt lat="43.30516553431658" lon="10.505891147030097"><ele>4.0</ele><time>2026-04-06T06:33:21Z</time></trkpt><trkpt lat="43.3052005696546" lon="10.505969832141988"><ele>3.9999999999999996</ele><time>2026-04-06T06:33:25Z</time></trkpt><trkpt lat="43.305240311324816" lon="10.506040270718996"><ele>4.0</ele><time>2026-04-06T06:33:31Z</time></trkpt><trkpt lat="43.30528262469449" lon="10.506110169728574"><ele>4.0</ele><time>2026-04-06T06:33:34Z</time></trkpt><trkpt lat="43.3053168593831" lon="10.506196202979147"><ele>3.9999999999999996</ele><time>2026-04-06T06:33:36Z</time></trkpt><trkpt lat="43.30534406270504" lon="10.506292897666837"><ele>4.0</ele><time>2026-04-06T06:33:39Z</time></trkpt><trkpt lat="43.30537046050145" lon="10.506386255506978"><ele>4.0</ele><time>2026-04-06T06:33:43Z</time></trkpt><trkpt lat="43.30540870464821" lon="10.506465855183801"><ele>4.142857142857142</ele><time>2026-04-06T06:33:48Z</time></trkpt><trkpt lat="43.305456928296316" lon="10.506532502683287"><ele>4.285714285714286</ele><time>2026-04-06T06:33:54Z</time></trkpt><trkpt lat="43.305505623016465" lon="10.506622610523413"><ele>4.428571428571429</ele><time>2026-04-06T06:33:58Z</time></trkpt><trkpt lat="43.305560622068235" lon="10.506679916033383"><ele>4.571428571428571</ele><time>2026-04-06T06:34:02Z</time></trkpt><trkpt lat="43.3055816909783" lon="10.506765532090956"><ele>4.714285714285714</ele><time>2026-04-06T06:34:08Z</time></trkpt><trkpt lat="43.30560985127382" lon="10.506844856355741"><ele>4.857142857142857</ele><time>2026-04-06T06:34:15Z</time></trkpt><trkpt lat="43.30564934945776" lon="10.506928571238873"><ele>5.0</ele><time>2026-04-06T06:34:20Z</time></trkpt><trkpt lat="43.30568701698785" lon="10.507006816944447"><ele>5.285714285714286</ele><time>2026-04-06T06:34:24Z</time></trkpt><trkpt lat="43.30573593067623" lon="10.507084848169145"><ele>5.571428571428571</ele><time>2026-04-06T06:34:30Z</time></trkpt><trkpt lat="43.30577283670904" lon="10.507164872302594"><ele>5.857142857142858</ele><time>2026-04-06T06:34:33Z</time></trkpt><trkpt lat="43.30581430181776" lon="10.50724818454319"><ele>6.142857142857142</ele><time>2026-04-06T06:34:37Z</time></trkpt><trkpt lat="43.30585962523223" lon="10.507327547821872"><ele>6.428571428571429</ele><time>2026-04-06T06:34:42Z</time></trkpt><trkpt lat="43.305906672756855" lon="10.507393988492598"><ele>6.714285714285714</ele><time>2026-04-06T06:34:46Z</time></trkpt><trkpt lat="43.30594286471545" lon="10.507484730035674"><ele>7.0</ele><time>2026-04-06T06:34:50Z</time></trkpt><trkpt lat="43.30598190069689" lon="10.507575843009315"><ele>7.0</ele><time>2026-04-06T06:34:55Z</time></trkpt><trkpt lat="43.30601635791666" lon="10.507653690187137"><ele>7.0</ele><time>2026-04-06T06:35:02Z</time></trkpt><trkpt lat="43.306062013219304" lon="10.507713759569278"><ele>7.0</ele><time>2026-04-06T06:35:06Z</time></trkpt><trkpt lat="43.30611964495674" lon="10.50777832656818"><ele>7.0</ele><time>2026-04-06T06:35:15Z</time></trkpt><trkpt lat="43.30612609923518" lon="10.507866894083238"><ele>7.0</ele><time>2026-04-06T06:35:21Z</time></trkpt><trkpt lat="43.3061555096289" lon="10.507952330428076"><ele>7.0</ele><time>2026-04-06T06:35:27Z</time></trkpt><trkpt lat="43.306180095283146" lon="10.508047595939832"><ele>7.0</ele><time>2026-04-06T06:35:31Z</time></trkpt><trkpt lat="43.30622248546585" lon="10.508143958622957"><ele>7.0</ele><time>2026-04-06T06:35:35Z</time></trkpt><trkpt lat="43.30625945027125" lon="10.508216979551355"><ele>7.0</ele><time>2026-04-06T06:35:39Z</time></trkpt><trkpt lat="43.30629864111596" lon="10.508285844590473"><ele>7.0</ele><time>2026-04-06T06:35:44Z</time></trkpt><trkpt lat="43.30632328123552" lon="10.508377445923786"><ele>7.0</ele><time>2026-04-06T06:35:49Z</time></trkpt><trkpt lat="43.30636326425321" lon="10.508448258768942"><ele>7.0</ele><time>2026-04-06T06:35:52Z</time></trkpt><trkpt lat="43.30642846882612" lon="10.50850581618608"><ele>7.0</ele><time>2026-04-06T06:35:55Z</time></trkpt><trkpt lat="43.30649068765234" lon="10.508570162940893"><ele>7.0</ele><time>2026-04-06T06:35:59Z</time></trkpt><trkpt lat="43.3065297240139" lon="10.508658413990478"><ele>6.833333333333334</ele><time>2026-04-06T06:36:06Z</time></trkpt><trkpt lat="43.30655756927673" lon="10.50875627873576"><ele>6.666666666666667</ele><time>2026-04-06T06:36:10Z</time></trkpt><trkpt lat="43.30659190440319" lon="10.508849798501084"><ele>6.5</ele><time>2026-04-06T06:36:14Z</time></trkpt><trkpt lat="43.30664241428864" lon="10.508916946667428"><ele>6.333333333333334</ele><time>2026-04-06T06:36:20Z</time></trkpt><trkpt lat="43.306666662608464" lon="10.509010013317138"><ele>6.166666666666667</ele><time>2026-04-06T06:36:27Z</time></trkpt><trkpt lat="43.3067082905449" lon="10.509106413584608"><ele>6.0</ele><time>2026-04-06T06:36:31Z</time></trkpt><trkpt lat="43.30674833767103" lon="10.509194172872764"><ele>5.999999999999999</ele><time>2026-04-06T06:36:35Z</time></trkpt><trkpt lat="43.30678451870218" lon="10.509280112448844"><ele>6.0</ele><time>2026-04-06T06:36:39Z</time></trkpt><trkpt lat="43.30682505784143" lon="10.509356967041077"><ele>6.0</ele><time>2026-04-06T06:36:43Z</time></trkpt><trkpt lat="43.3068793885527" lon="10.509434580673648"><ele>6.0</ele><time>2026-04-06T06:36:48Z</time></trkpt><trkpt lat="43.30691196912218" lon="10.509533358604433"><ele>6.0</ele><time>2026-04-06T06:36:52Z</time></trkpt><trkpt lat="43.30695191917538" lon="10.509623004947967"><ele>5.999999999999999</ele><time>2026-04-06T06:36:57Z</time></trkpt><trkpt lat="43.30697931660239" lon="10.509707456492231"><ele>6.0</ele><time>2026-04-06T06:37:05Z</time></trkpt><trkpt lat="43.30701133352887" lon="10.50978838347442"><ele>6.142857142857142</ele><time>2026-04-06T06:37:11Z</time></trkpt><trkpt lat="43.30704904833172" lon="10.509862440273128"><ele>6.285714285714286</ele><time>2026-04-06T06:37:16Z</time></trkpt><trkpt lat="43.30707112237572" lon="10.509951136643771"><ele>6.428571428571429</ele><time>2026-04-06T06:37:21Z</time></trkpt><trkpt lat="43.30711841287632" lon="10.510020188463763"><ele>6.571428571428571</ele><time>2026-04-06T06:37:28Z</time></trkpt><trkpt lat="43.30716275559707" lon="10.510082771484226"><ele>6.714285714285714</ele><time>2026-04-06T06:37:34Z</time></trkpt><trkpt lat="43.30720770819508" lon="10.510169219126542"><ele>6.857142857142857</ele><time>2026-04-06T06:37:39Z</time></trkpt><trkpt lat="43.30724925460611" lon="10.510239733277666"><ele>7.0</ele><time>2026-04-06T06:37:42Z</time></trkpt><trkpt lat="43.30728219528812" lon="10.510331352456365"><ele>7.142857142857142</ele><time>2026-04-06T06:37:47Z</time></trkpt><trkpt lat="43.30732399063942" lon="10.510399688587313"><ele>7.285714285714286</ele><time>2026-04-06T06:37:53Z</time></trkpt><trkpt lat="43.30735271215137" lon="10.51048829957569"><ele>7.428571428571429</ele><time>2026-04-06T06:37:58Z</time></trkpt><trkpt lat="43.30738949646295" lon="10.510571912289295"><ele>7.571428571428571</ele><time>2026-04-06T06:38:04Z</time></trkpt><trkpt lat="43.307439824147174" lon="10.510654473815075"><ele>7.7142857142857135</ele><time>2026-04-06T06:38:10Z</time></trkpt><trkpt lat="43.30748577615224" lon="10.510751117943688"><ele>7.857142857142857</ele><time>2026-04-06T06:38:13Z</time></trkpt><trkpt lat="43.307518158682704" lon="10.51083214823691"><ele>8.0</ele><time>2026-04-06T06:38:16Z</time></trkpt><trkpt lat="43.307569337499075" lon="10.510926223024391"><ele>8.0</ele><time>2026-04-06T06:38:20Z</time></trkpt><trkpt lat="43.30760938679874" lon="10.511021089289565"><ele>7.999999999999999</ele><time>2026-04-06T06:38:24Z</time></trkpt><trkpt lat="43.30765020078802" lon="10.511097308620801"><ele>8.0</ele><time>2026-04-06T06:38:29Z</time></trkpt><trkpt lat="43.30769238732354" lon="10.511172513332644"><ele>8.0</ele><time>2026-04-06T06:38:35Z</time></trkpt><trkpt lat="43.307721723179995" lon="10.51125072004138"><ele>7.999999999999999</ele><time>2026-04-06T06:38:40Z</time></trkpt><trkpt lat="43.30776254815552" lon="10.511337484208555"><ele>8.0</ele><time>2026-04-06T06:38:47Z</time></trkpt><trkpt lat="43.307801489918354" lon="10.511424477974085"><ele>8.0</ele><time>2026-04-06T06:38:55Z</time></trkpt><trkpt lat="43.30784475202885" lon="10.511499906192384"><ele>7.857142857142857</ele><time>2026-04-06T06:39:02Z</time></trkpt><trkpt lat="43.307886501099176" lon="10.511576141823557"><ele>7.7142857142857135</ele><time>2026-04-06T06:39:07Z</time></trkpt><trkpt lat="43.307919360601005" lon="10.511659278993713"><ele>7.571428571428571</ele><time>2026-04-06T06:39:15Z</time></trkpt><trkpt lat="43.30797166903267" lon="10.51173559238997"><ele>7.428571428571429</ele><time>2026-04-06T06:39:19Z</time></trkpt><trkpt lat="43.30801965082397" lon="10.511811385094552"><ele>7.285714285714286</ele><time>2026-04-06T06:39:23Z</time></trkpt><trkpt lat="43.308060134565444" lon="10.511890070015026"><ele>7.142857142857142</ele><time>2026-04-06T06:39:26Z</time></trkpt><trkpt lat="43.30808422503993" lon="10.511990158072358"><ele>7.0</ele><time>2026-04-06T06:39:29Z</time></trkpt><trkpt lat="43.308106920768545" lon="10.512072988722894"><ele>7.0</ele><time>2026-04-06T06:39:32Z</time></trkpt><trkpt lat="43.30814842591939" lon="10.512141189740882"><ele>7.0</ele><time>2026-04-06T06:39:37Z</time></trkpt><trkpt lat="43.308196785382044" lon="10.512209625948394"><ele>7.0</ele><time>2026-04-06T06:39:45Z</time></trkpt><trkpt lat="43.30824807282437" lon="10.512291751473976"><ele>7.0</ele><time>2026-04-06T06:39:50Z</time></trkpt><trkpt lat="43.30828857468267" lon="10.512370178732684"><ele>7.0</ele><time>2026-04-06T06:39:54Z</time></trkpt><trkpt lat="43.308315294055824" lon="10.512463231242181"><ele>7.0</ele><time>2026-04-06T06:39:59Z</time></trkpt><trkpt lat="43.30836135922546" lon="10.512533978797357"><ele>7.0</ele><time>2026-04-06T06:40:04Z</time></trkpt><trkpt lat="43.308383588127064" lon="10.512632752118341"><ele>7.0</ele><time>2026-04-06T06:40:11Z</time></trkpt><trkpt lat="43.308411709421485" lon="10.512733108753253"><ele>7.0</ele><time>2026-04-06T06:40:16Z</time></trkpt><trkpt lat="43.30845195450986" lon="10.512805099335784"><ele>7.0</ele><time>2026-04-06T06:40:20Z</time></trkpt><trkpt lat="43.30848138496998" lon="10.51289266282088"><ele>7.0</ele><time>2026-04-06T06:40:25Z</time></trkpt><trkpt lat="43.308506767417526" lon="10.512987351626299"><ele>7.0</ele><time>2026-04-06T06:40:32Z</time></trkpt><trkpt lat="43.30855812017316" lon="10.513069694405473"><ele>7.0</ele><time>2026-04-06T06:40:37Z</time></trkpt><trkpt lat="43.30861265302754" lon="10.513150384062182"><ele>7.0</ele><time>2026-04-06T06:40:42Z</time></trkpt><trkpt lat="43.308662359529436" lon="10.51322047966798"><ele>7.142857142857142</ele><time>2026-04-06T06:40:46Z</time></trkpt><trkpt lat="43.30871025589217" lon="10.51331698711293"><ele>7.285714285714286</ele><time>2026-04-06T06:40:50Z</time></trkpt><trkpt lat="43.30874469614838" lon="10.513394874713368"><ele>7.428571428571429</ele><time>2026-04-06T06:40:53Z</time></trkpt><trkpt lat="43.30876411809985" lon="10.5134852032149"><ele>7.571428571428571</ele><time>2026-04-06T06:40:58Z</time></trkpt><trkpt lat="43.308786500127425" lon="10.513567912336056"><ele>7.7142857142857135</ele><time>2026-04-06T06:41:05Z</time></trkpt><trkpt lat="43.30881012705251" lon="10.513671435780068"><ele>7.857142857142857</ele><time>2026-04-06T06:41:12Z</time></trkpt><trkpt lat="43.30885387850691" lon="10.513772424883838"><ele>8.0</ele><time>2026-04-06T06:41:16Z</time></trkpt><trkpt lat="43.308910617772064" lon="10.513860705120694"><ele>8.0</ele><time>2026-04-06T06:41:19Z</time></trkpt><trkpt lat="43.30897084958036" lon="10.51391335940675"><ele>7.999999999999999</ele><time>2026-04-06T06:41:24Z</time></trkpt><trkpt lat="43.308973353014096" lon="10.514009321308926"><ele>8.0</ele><time>2026-04-06T06:41:31Z</time></trkpt><trkpt lat="43.309035236904876" lon="10.514055209593208"><ele>8.0</ele><time>2026-04-06T06:41:36Z</time></trkpt><trkpt lat="43.30910008461816" lon="10.514118876331285"><ele>7.999999999999999</ele><time>2026-04-06T06:41:40Z</time></trkpt><trkpt lat="43.30915936570307" lon="10.514180155313667"><ele>8.0</ele><time>2026-04-06T06:41:44Z</time></trkpt><trkpt lat="43.309204618575436" lon="10.514242814522333"><ele>8.0</ele><time>2026-04-06T06:41:48Z</time></trkpt><trkpt lat="43.30922032560089" lon="10.514328675058948"><ele>8.0</ele><time>2026-04-06T06:41:52Z</time></trkpt><trkpt lat="43.3091690600195" lon="10.514387274496054"><ele>8.0</ele><time>2026-04-06T06:42:02.025Z</time></trkpt><trkpt lat="43.309197524726166" lon="10.515113469979656"><ele>8.25</ele><time>2026-04-06T06:42:25.35Z</time></trkpt><trkpt lat="43.30943200087023" lon="10.515001838270601"><ele>8.5</ele><time>2026-04-06T06:42:28.2Z</time></trkpt><trkpt lat="43.30946714805384" lon="10.515089578263217"><ele>8.75</ele><time>2026-04-06T06:42:32Z</time></trkpt><trkpt lat="43.309487598551335" lon="10.51517848988705"><ele>9.0</ele><time>2026-04-06T06:42:40Z</time></trkpt><trkpt lat="43.30952070869347" lon="10.515257204560706"><ele>9.000000000000002</ele><time>2026-04-06T06:42:45Z</time></trkpt><trkpt lat="43.309550605655986" lon="10.515345071775437"><ele>9.0</ele><time>2026-04-06T06:42:51Z</time></trkpt><trkpt lat="43.309537119448045" lon="10.51544601459452"><ele>9.0</ele><time>2026-04-06T06:42:56Z</time></trkpt><trkpt lat="43.309535127021874" lon="10.515542988511857"><ele>9.0</ele><time>2026-04-06T06:42:59Z</time></trkpt><trkpt lat="43.309493347374406" lon="10.515613774663022"><ele>9.0</ele><time>2026-04-06T06:43:02Z</time></trkpt><trkpt lat="43.30943740993142" lon="10.515672133463427"><ele>9.000000000000002</ele><time>2026-04-06T06:43:06Z</time></trkpt><trkpt lat="43.30938955437861" lon="10.515739758359567"><ele>9.0</ele><time>2026-04-06T06:43:11Z</time></trkpt><trkpt lat="43.30931477701001" lon="10.515776818515628"><ele>9.0</ele><time>2026-04-06T06:43:20Z</time></trkpt><trkpt lat="43.30924397553716" lon="10.515830472320193"><ele>9.0</ele><time>2026-04-06T06:43:32Z</time></trkpt><trkpt lat="43.309225564716776" lon="10.515913547307179"><ele>9.0</ele><time>2026-04-06T06:43:35Z</time></trkpt><trkpt lat="43.309189893063746" lon="10.515999904069618"><ele>9.0</ele><time>2026-04-06T06:43:38Z</time></trkpt><trkpt lat="43.309102439104045" lon="10.5160064525749"><ele>9.0</ele><time>2026-04-06T06:43:43Z</time></trkpt><trkpt lat="43.309025419535686" lon="10.516039202177334"><ele>9.0</ele><time>2026-04-06T06:43:47Z</time></trkpt><trkpt lat="43.3089720649568" lon="10.516097665159457"><ele>9.0</ele><time>2026-04-06T06:43:52Z</time></trkpt><trkpt lat="43.30893390725063" lon="10.516169539868999"><ele>9.0</ele><time>2026-04-06T06:44:03Z</time></trkpt><trkpt lat="43.30892355763017" lon="10.51627658056421"><ele>9.0</ele><time>2026-04-06T06:44:09Z</time></trkpt><trkpt lat="43.30898506443053" lon="10.516401408454682"><ele>9.0</ele><time>2026-04-06T06:44:28Z</time></trkpt><trkpt lat="43.309023600718746" lon="10.516477866715398"><ele>9.0</ele><time>2026-04-06T06:44:31Z</time></trkpt><trkpt lat="43.30903936353871" lon="10.516581770654994"><ele>9.0</ele><time>2026-04-06T06:44:34Z</time></trkpt><trkpt lat="43.309050959491145" lon="10.516692976176126"><ele>9.428571428571429</ele><time>2026-04-06T06:44:37Z</time></trkpt><trkpt lat="43.309054407305865" lon="10.516814213891058"><ele>9.857142857142858</ele><time>2026-04-06T06:44:40Z</time></trkpt><trkpt lat="43.30906360695232" lon="10.516915248886036"><ele>10.285714285714285</ele><time>2026-04-06T06:44:44Z</time></trkpt><trkpt lat="43.309080226417194" lon="10.517006221969725"><ele>10.714285714285715</ele><time>2026-04-06T06:44:47Z</time></trkpt><trkpt lat="43.30911068659537" lon="10.517094304353813"><ele>11.142857142857142</ele><time>2026-04-06T06:44:52Z</time></trkpt><trkpt lat="43.30917764829545" lon="10.517158551345915"><ele>11.571428571428571</ele><time>2026-04-06T06:44:57Z</time></trkpt><trkpt lat="43.309209124616785" lon="10.517234750220062"><ele>12.0</ele><time>2026-04-06T06:45:02Z</time></trkpt><trkpt lat="43.309205662553396" lon="10.517329495611117"><ele>12.428571428571427</ele><time>2026-04-06T06:45:05Z</time></trkpt><trkpt lat="43.30923313530887" lon="10.517415272661381"><ele>12.857142857142858</ele><time>2026-04-06T06:45:09Z</time></trkpt><trkpt lat="43.30930068104113" lon="10.51743279926281"><ele>13.285714285714285</ele><time>2026-04-06T06:45:14Z</time></trkpt><trkpt lat="43.30930147209697" lon="10.517551998309356"><ele>13.714285714285714</ele><time>2026-04-06T06:45:19Z</time></trkpt><trkpt lat="43.30928609308298" lon="10.517641333267338"><ele>14.142857142857142</ele><time>2026-04-06T06:45:22Z</time></trkpt><trkpt lat="43.3092848086485" lon="10.51774759245011"><ele>14.571428571428571</ele><time>2026-04-06T06:45:27Z</time></trkpt><trkpt lat="43.30925603506811" lon="10.517832481237622"><ele>15.0</ele><time>2026-04-06T06:45:34Z</time></trkpt><trkpt lat="43.30918607955907" lon="10.517792090255316"><ele>15.0</ele><time>2026-04-06T06:45:37Z</time></trkpt><trkpt lat="43.30911221813134" lon="10.517775184735108"><ele>15.0</ele><time>2026-04-06T06:45:41Z</time></trkpt><trkpt lat="43.309052966886924" lon="10.517811911224339"><ele>15.0</ele><time>2026-04-06T06:45:50Z</time></trkpt><trkpt lat="43.30904961359398" lon="10.517902155344844"><ele>15.0</ele><time>2026-04-06T06:45:54Z</time></trkpt><trkpt lat="43.30906659197814" lon="10.518016062983314"><ele>15.0</ele><time>2026-04-06T06:45:57Z</time></trkpt><trkpt lat="43.309068912568954" lon="10.518119134039916"><ele>15.0</ele><time>2026-04-06T06:46:01Z</time></trkpt><trkpt lat="43.309102113236484" lon="10.51822527574457"><ele>15.0</ele><time>2026-04-06T06:46:04Z</time></trkpt><trkpt lat="43.30914744765056" lon="10.518300682813832"><ele>14.571428571428571</ele><time>2026-04-06T06:46:07Z</time></trkpt><trkpt lat="43.30918636066425" lon="10.518384885921957"><ele>14.142857142857142</ele><time>2026-04-06T06:46:10Z</time></trkpt><trkpt lat="43.30918108855413" lon="10.518471735917897"><ele>13.714285714285714</ele><time>2026-04-06T06:46:16Z</time></trkpt><trkpt lat="43.30918771860938" lon="10.518566371390069"><ele>13.285714285714285</ele><time>2026-04-06T06:46:21Z</time></trkpt><trkpt lat="43.30920588027554" lon="10.518655383401292"><ele>12.857142857142858</ele><time>2026-04-06T06:46:24Z</time></trkpt><trkpt lat="43.30922570473398" lon="10.518754879743264"><ele>12.428571428571427</ele><time>2026-04-06T06:46:28Z</time></trkpt><trkpt lat="43.30922186796667" lon="10.518845536322099"><ele>12.0</ele><time>2026-04-06T06:46:33Z</time></trkpt><trkpt lat="43.309251696342734" lon="10.518934426242929"><ele>11.857142857142856</ele><time>2026-04-06T06:46:38Z</time></trkpt><trkpt lat="43.309316938912616" lon="10.518952442564002"><ele>11.714285714285714</ele><time>2026-04-06T06:46:42Z</time></trkpt><trkpt lat="43.309371597332884" lon="10.519003861410273"><ele>11.571428571428571</ele><time>2026-04-06T06:46:48Z</time></trkpt><trkpt lat="43.30938971717709" lon="10.519092045070046"><ele>11.428571428571427</ele><time>2026-04-06T06:46:52Z</time></trkpt><trkpt lat="43.30941762978948" lon="10.51917584614522"><ele>11.285714285714285</ele><time>2026-04-06T06:46:55Z</time></trkpt><trkpt lat="43.3094502848022" lon="10.519269872796261"><ele>11.142857142857142</ele><time>2026-04-06T06:46:58Z</time></trkpt><trkpt lat="43.30948331171599" lon="10.519353243933244"><ele>11.0</ele><time>2026-04-06T06:47:01Z</time></trkpt><trkpt lat="43.30950623457391" lon="10.519473659084127"><ele>11.142857142857142</ele><time>2026-04-06T06:47:05Z</time></trkpt><trkpt lat="43.30953487055089" lon="10.519568470977902"><ele>11.285714285714285</ele><time>2026-04-06T06:47:08Z</time></trkpt><trkpt lat="43.30954616899066" lon="10.519656036297862"><ele>11.428571428571427</ele><time>2026-04-06T06:47:11Z</time></trkpt><trkpt lat="43.30958356754635" lon="10.51972882246701"><ele>11.571428571428571</ele><time>2026-04-06T06:47:16Z</time></trkpt><trkpt lat="43.309631395870035" lon="10.519803599794177"><ele>11.714285714285714</ele><time>2026-04-06T06:47:28Z</time></trkpt><trkpt lat="43.309648267078124" lon="10.5198918130905"><ele>11.857142857142856</ele><time>2026-04-06T06:47:31Z</time></trkpt><trkpt lat="43.30967469630941" lon="10.519986794848824"><ele>12.0</ele><time>2026-04-06T06:47:34Z</time></trkpt><trkpt lat="43.30971370638147" lon="10.52008948004698"><ele>11.999999999999998</ele><time>2026-04-06T06:47:37Z</time></trkpt><trkpt lat="43.309720176206966" lon="10.52018247627201"><ele>12.0</ele><time>2026-04-06T06:47:40Z</time></trkpt><trkpt lat="43.30971216521188" lon="10.52027997717505"><ele>12.0</ele><time>2026-04-06T06:47:43Z</time></trkpt><trkpt lat="43.30975908448395" lon="10.520347725024283"><ele>12.0</ele><time>2026-04-06T06:47:49Z</time></trkpt><trkpt lat="43.309783538074406" lon="10.520427937310881"><ele>12.0</ele><time>2026-04-06T06:47:53Z</time></trkpt><trkpt lat="43.309772070634814" lon="10.52052427694441"><ele>11.999999999999998</ele><time>2026-04-06T06:47:59Z</time></trkpt><trkpt lat="43.309798229596346" lon="10.520610582549105"><ele>12.0</ele><time>2026-04-06T06:48:04Z</time></trkpt><trkpt lat="43.309828062472" lon="10.520707320268452"><ele>12.142857142857142</ele><time>2026-04-06T06:48:07Z</time></trkpt><trkpt lat="43.30984842760068" lon="10.52080578371678"><ele>12.285714285714285</ele><time>2026-04-06T06:48:11Z</time></trkpt><trkpt lat="43.30986424985213" lon="10.520903298606457"><ele>12.428571428571427</ele><time>2026-04-06T06:48:14Z</time></trkpt><trkpt lat="43.30987694810653" lon="10.520998882222655"><ele>12.571428571428571</ele><time>2026-04-06T06:48:18Z</time></trkpt><trkpt lat="43.30989999138225" lon="10.521096216573788"><ele>12.714285714285715</ele><time>2026-04-06T06:48:23Z</time></trkpt><trkpt lat="43.309930384180966" lon="10.52117356648819"><ele>12.857142857142856</ele><time>2026-04-06T06:48:29Z</time></trkpt><trkpt lat="43.309910120632956" lon="10.521257962366079"><ele>13.0</ele><time>2026-04-06T06:48:35Z</time></trkpt><trkpt lat="43.30991924139332" lon="10.521357977806712"><ele>12.999999999999998</ele><time>2026-04-06T06:48:39Z</time></trkpt><trkpt lat="43.30999557528851" lon="10.521435558867983"><ele>13.0</ele><time>2026-04-06T06:48:42Z</time></trkpt><trkpt lat="43.31002521460062" lon="10.521539853218068"><ele>13.0</ele><time>2026-04-06T06:48:45Z</time></trkpt><trkpt lat="43.31007053153364" lon="10.52162642177057"><ele>13.0</ele><time>2026-04-06T06:48:50Z</time></trkpt><trkpt lat="43.31008036012275" lon="10.521715574037486"><ele>12.999999999999998</ele><time>2026-04-06T06:48:55Z</time></trkpt><trkpt lat="43.31008794432318" lon="10.521821665678031"><ele>13.0</ele><time>2026-04-06T06:49:00Z</time></trkpt><trkpt lat="43.310136865071655" lon="10.521911006675577"><ele>13.0</ele><time>2026-04-06T06:49:04Z</time></trkpt><trkpt lat="43.310172598781115" lon="10.521996516889901"><ele>13.0</ele><time>2026-04-06T06:49:08Z</time></trkpt><trkpt lat="43.31021354614011" lon="10.522082399005255"><ele>13.0</ele><time>2026-04-06T06:49:12Z</time></trkpt><trkpt lat="43.3102819952362" lon="10.522153122499518"><ele>13.0</ele><time>2026-04-06T06:49:15Z</time></trkpt><trkpt lat="43.31034806325722" lon="10.522159611302877"><ele>13.0</ele><time>2026-04-06T06:49:18Z</time></trkpt><trkpt lat="43.3104184729235" lon="10.522145900632196"><ele>13.0</ele><time>2026-04-06T06:49:24Z</time></trkpt><trkpt lat="43.31048568878701" lon="10.522129624655538"><ele>13.0</ele><time>2026-04-06T06:49:29Z</time></trkpt><trkpt lat="43.31056754432701" lon="10.522147594213921"><ele>13.499999999999998</ele><time>2026-04-06T06:49:33Z</time></trkpt><trkpt lat="43.310631017248014" lon="10.522136970810314"><ele>14.0</ele><time>2026-04-06T06:49:39Z</time></trkpt><trkpt lat="43.31068750320333" lon="10.522067815314156"><ele>14.5</ele><time>2026-04-06T06:49:44Z</time></trkpt><trkpt lat="43.3107775231535" lon="10.522110674875698"><ele>15.0</ele><time>2026-04-06T06:49:54Z</time></trkpt><trkpt lat="43.310817725569976" lon="10.522193846318084"><ele>15.499999999999998</ele><time>2026-04-06T06:49:57Z</time></trkpt><trkpt lat="43.31086041399384" lon="10.522293676427184"><ele>16.0</ele><time>2026-04-06T06:50:01Z</time></trkpt><trkpt lat="43.31088731596187" lon="10.522390809050506"><ele>16.0</ele><time>2026-04-06T06:50:05Z</time></trkpt><trkpt lat="43.31091925735786" lon="10.522480316463676"><ele>15.999999999999998</ele><time>2026-04-06T06:50:09Z</time></trkpt><trkpt lat="43.31094475250382" lon="10.522559641800443"><ele>16.0</ele><time>2026-04-06T06:50:13Z</time></trkpt><trkpt lat="43.310992052377564" lon="10.522639925343947"><ele>16.0</ele><time>2026-04-06T06:50:17Z</time></trkpt><trkpt lat="43.31103821479226" lon="10.522712064448152"><ele>15.999999999999998</ele><time>2026-04-06T06:50:22Z</time></trkpt><trkpt lat="43.31107340280693" lon="10.522792486837277"><ele>16.0</ele><time>2026-04-06T06:50:27Z</time></trkpt><trkpt lat="43.31110895718416" lon="10.522873740214962"><ele>16.0</ele><time>2026-04-06T06:50:32Z</time></trkpt><trkpt lat="43.31113211470707" lon="10.522955575029714"><ele>15.0</ele><time>2026-04-06T06:50:35Z</time></trkpt><trkpt lat="43.31114665531018" lon="10.52304482602245"><ele>15.0</ele><time>2026-04-06T06:50:39Z</time></trkpt><trkpt lat="43.31117851485342" lon="10.523121434187624"><ele>15.0</ele><time>2026-04-06T06:50:42Z</time></trkpt><trkpt lat="43.31125010674012" lon="10.523152308099114"><ele>15.0</ele><time>2026-04-06T06:50:46Z</time></trkpt><trkpt lat="43.311310764472076" lon="10.52312814680328"><ele>15.0</ele><time>2026-04-06T06:50:50Z</time></trkpt><trkpt lat="43.31133426211701" lon="10.523030869059971"><ele>15.0</ele><time>2026-04-06T06:51:26Z</time></trkpt></trkseg></trk></gpx>